Observation data for Claude 12 Southwest on 07/24/2019      Previous  Date  Next       Current Mesonet Observations  Soil Data  Daily Summary Page  Observations in Plain Language
KCL1 240500Z 13006KT 20/09 A3028 RMK A01 T01990094  RH  051%=      5-min Rain = 0
KCL1 240501Z 12006KT 20/09 A3028 RMK A01 T01990094  RH  051%=      5-min Rain = 0
KCL1 240502Z 12006KT 20/09 A3028 RMK A01 T01990093  RH  051%=      5-min Rain = 0
KCL1 240503Z 13006KT 20/09 A3028 RMK A01 T01990094  RH  051%=      5-min Rain = 0
KCL1 240504Z 13006KT 20/09 A3028 RMK A01 T01980093  RH  051%=      5-min Rain = 0
KCL1 240505Z 13006KT 20/09 A3028 RMK A01 T01980093  RH  051%=      5-min Rain = 0
KCL1 240506Z 13006KT 20/09 A3028 RMK A01 T01980093  RH  051%=      5-min Rain = 0
KCL1 240507Z 13006KT 20/09 A3028 RMK A01 T01980093  RH  051%=      5-min Rain = 0
KCL1 240508Z 13007KT 20/09 A3028 RMK A01 T01980093  RH  051%=      5-min Rain = 0
KCL1 240509Z 14006KT 20/09 A3028 RMK A01 T01970093  RH  051%=      5-min Rain = 0
KCL1 240510Z 14006KT 20/09 A3028 RMK A01 T01970093  RH  051%=      5-min Rain = 0
KCL1 240511Z 14006KT 20/09 A3028 RMK A01 T01970093  RH  051%=      5-min Rain = 0
KCL1 240512Z 14006KT 20/09 A3028 RMK A01 T01970093  RH  051%=      5-min Rain = 0
KCL1 240513Z 13006KT 20/09 A3028 RMK A01 T01970092  RH  051%=      5-min Rain = 0
KCL1 240514Z 13007KT 20/09 A3028 RMK A01 T01970093  RH  051%=      5-min Rain = 0
KCL1 240515Z 13007KT 20/09 A3028 RMK A01 T01970093  RH  051%=      5-min Rain = 0
KCL1 240516Z 13007KT 20/09 A3028 RMK A01 T01970093  RH  051%=      5-min Rain = 0
KCL1 240517Z 13006KT 20/09 A3028 RMK A01 T01970092  RH  051%=      5-min Rain = 0
KCL1 240518Z 13007KT 20/09 A3028 RMK A01 T01970092  RH  051%=      5-min Rain = 0
KCL1 240519Z 13008KT 20/09 A3028 RMK A01 T01970092  RH  051%=      5-min Rain = 0
KCL1 240520Z 13007KT 20/09 A3028 RMK A01 T01970092  RH  051%=      5-min Rain = 0
KCL1 240521Z 13007KT 20/09 A3028 RMK A01 T01980092  RH  050%=      5-min Rain = 0
KCL1 240522Z 13007KT 20/09 A3028 RMK A01 T01980092  RH  050%=      5-min Rain = 0
KCL1 240523Z 13007KT 20/09 A3028 RMK A01 T01980092  RH  050%=      5-min Rain = 0
KCL1 240524Z 13007KT 20/09 A3028 RMK A01 T01990092  RH  050%=      5-min Rain = 0
KCL1 240525Z 13007KT 20/09 A3028 RMK A01 T01990092  RH  050%=      5-min Rain = 0
KCL1 240526Z 13007KT 20/09 A3028 RMK A01 T02000092  RH  050%=      5-min Rain = 0
KCL1 240527Z 13007KT 20/09 A3028 RMK A01 T02000092  RH  050%=      5-min Rain = 0
KCL1 240528Z 14007KT 20/09 A3028 RMK A01 T02010092  RH  049%=      5-min Rain = 0
KCL1 240529Z 14007KT 20/09 A3028 RMK A01 T02010092  RH  049%=      5-min Rain = 0
KCL1 240530Z 13007KT 20/09 A3028 RMK A01 T02010092  RH  049%=      5-min Rain = 0
KCL1 240531Z 14007KT 20/09 A3028 RMK A01 T02010092  RH  050%=      5-min Rain = 0
KCL1 240532Z 14007KT 20/09 A3028 RMK A01 T02000092  RH  050%=      5-min Rain = 0
KCL1 240533Z 13007KT 20/09 A3028 RMK A01 T01990092  RH  050%=      5-min Rain = 0
KCL1 240534Z 13006KT 20/09 A3028 RMK A01 T01990092  RH  050%=      5-min Rain = 0
KCL1 240535Z 13007KT 20/09 A3028 RMK A01 T01990092  RH  050%=      5-min Rain = 0
KCL1 240536Z 13007KT 20/09 A3028 RMK A01 T01990092  RH  050%=      5-min Rain = 0
KCL1 240537Z 13007KT 20/09 A3028 RMK A01 T01990092  RH  050%=      5-min Rain = 0
KCL1 240538Z 13007KT 20/09 A3028 RMK A01 T01990092  RH  050%=      5-min Rain = 0
KCL1 240539Z 13006KT 20/09 A3028 RMK A01 T01990092  RH  050%=      5-min Rain = 0
KCL1 240540Z 13007KT 20/09 A3028 RMK A01 T01990092  RH  050%=      5-min Rain = 0
KCL1 240541Z 12007KT 20/09 A3028 RMK A01 T01980092  RH  050%=      5-min Rain = 0
KCL1 240542Z 12007KT 20/09 A3028 RMK A01 T01980091  RH  050%=      5-min Rain = 0
KCL1 240543Z 12006KT 20/09 A3028 RMK A01 T01980092  RH  050%=      5-min Rain = 0
KCL1 240544Z 12007KT 20/09 A3028 RMK A01 T01970091  RH  050%=      5-min Rain = 0
KCL1 240545Z 12007KT 20/09 A3028 RMK A01 T01970092  RH  051%=      5-min Rain = 0
KCL1 240546Z 12007KT 20/09 A3028 RMK A01 T01960091  RH  051%=      5-min Rain = 0
KCL1 240547Z 12007KT 20/09 A3028 RMK A01 T01960091  RH  051%=      5-min Rain = 0
KCL1 240548Z 12007KT 20/09 A3028 RMK A01 T01950091  RH  051%=      5-min Rain = 0
KCL1 240549Z 12006KT 20/09 A3028 RMK A01 T01950092  RH  051%=      5-min Rain = 0
KCL1 240550Z 13007KT 19/09 A3028 RMK A01 T01940092  RH  051%=      5-min Rain = 0
KCL1 240551Z 12007KT 19/09 A3028 RMK A01 T01940091  RH  051%=      5-min Rain = 0
KCL1 240552Z 13007KT 19/09 A3028 RMK A01 T01930091  RH  052%=      5-min Rain = 0
KCL1 240553Z 13006KT 19/09 A3028 RMK A01 T01930091  RH  052%=      5-min Rain = 0
KCL1 240554Z 13006KT 19/09 A3028 RMK A01 T01930091  RH  052%=      5-min Rain = 0
KCL1 240555Z 14006KT 19/09 A3028 RMK A01 T01920091  RH  052%=      5-min Rain = 0
KCL1 240556Z 14006KT 19/09 A3028 RMK A01 T01920091  RH  052%=      5-min Rain = 0
KCL1 240557Z 15006KT 19/09 A3028 RMK A01 T01920091  RH  052%=      5-min Rain = 0
KCL1 240558Z 15006KT 19/09 A3028 RMK A01 T01920091  RH  052%=      5-min Rain = 0
KCL1 240559Z 15006KT 19/09 A3028 RMK A01 T01920091  RH  052%=      5-min Rain = 0
KCL1 240600Z 14006KT 19/09 A3028 RMK A01 T01920091  RH  052%=      5-min Rain = 0
KCL1 240601Z 14006KT 19/09 A3028 RMK A01 T01920091  RH  052%=      5-min Rain = 0
KCL1 240602Z 14006KT 19/09 A3029 RMK A01 T01910091  RH  052%=      5-min Rain = 0
KCL1 240603Z 14006KT 19/09 A3028 RMK A01 T01910091  RH  052%=      5-min Rain = 0
KCL1 240604Z 14006KT 19/09 A3028 RMK A01 T01910091  RH  052%=      5-min Rain = 0
KCL1 240605Z 14006KT 19/09 A3028 RMK A01 T01910091  RH  052%=      5-min Rain = 0
KCL1 240606Z 14006KT 19/09 A3028 RMK A01 T01900090  RH  052%=      5-min Rain = 0
KCL1 240607Z 14006KT 19/09 A3028 RMK A01 T01900090  RH  052%=      5-min Rain = 0
KCL1 240608Z 14007KT 19/09 A3028 RMK A01 T01900091  RH  052%=      5-min Rain = 0
KCL1 240609Z 13006KT 19/09 A3028 RMK A01 T01900091  RH  052%=      5-min Rain = 0
KCL1 240610Z 14006KT 19/09 A3028 RMK A01 T01900091  RH  052%=      5-min Rain = 0
KCL1 240611Z 14006KT 19/09 A3028 RMK A01 T01900091  RH  052%=      5-min Rain = 0
KCL1 240612Z 14006KT 19/09 A3028 RMK A01 T01900090  RH  052%=      5-min Rain = 0
KCL1 240613Z 14007KT 19/09 A3028 RMK A01 T01900091  RH  052%=      5-min Rain = 0
KCL1 240614Z 13007KT 19/09 A3028 RMK A01 T01900090  RH  052%=      5-min Rain = 0
KCL1 240615Z 14006KT 19/09 A3028 RMK A01 T01900090  RH  052%=      5-min Rain = 0
KCL1 240616Z 14007KT 19/09 A3028 RMK A01 T01900090  RH  052%=      5-min Rain = 0
KCL1 240617Z 14006KT 19/09 A3028 RMK A01 T01900090  RH  052%=      5-min Rain = 0
KCL1 240618Z 14006KT 19/09 A3028 RMK A01 T01900090  RH  052%=      5-min Rain = 0
KCL1 240619Z 14006KT 19/09 A3028 RMK A01 T01900090  RH  052%=      5-min Rain = 0
KCL1 240620Z 14006KT 19/09 A3028 RMK A01 T01900090  RH  052%=      5-min Rain = 0
KCL1 240621Z 14006KT 19/09 A3028 RMK A01 T01900090  RH  052%=      5-min Rain = 0
KCL1 240622Z 14006KT 19/09 A3028 RMK A01 T01900090  RH  052%=      5-min Rain = 0
KCL1 240623Z 14006KT 19/09 A3028 RMK A01 T01900090  RH  052%=      5-min Rain = 0
KCL1 240624Z 14006KT 19/09 A3028 RMK A01 T01890090  RH  052%=      5-min Rain = 0
KCL1 240625Z 14006KT 19/09 A3028 RMK A01 T01890090  RH  052%=      5-min Rain = 0
KCL1 240626Z 14006KT 19/09 A3028 RMK A01 T01890090  RH  053%=      5-min Rain = 0
KCL1 240627Z 14006KT 19/09 A3028 RMK A01 T01890090  RH  053%=      5-min Rain = 0
KCL1 240628Z 14006KT 19/09 A3028 RMK A01 T01880090  RH  053%=      5-min Rain = 0
KCL1 240629Z 14006KT 19/09 A3028 RMK A01 T01880090  RH  053%=      5-min Rain = 0
KCL1 240630Z 13007KT 19/09 A3028 RMK A01 T01880089  RH  053%=      5-min Rain = 0
KCL1 240631Z 13006KT 19/09 A3028 RMK A01 T01870089  RH  053%=      5-min Rain = 0
KCL1 240632Z 13006KT 19/09 A3028 RMK A01 T01870089  RH  053%=      5-min Rain = 0
KCL1 240633Z 14006KT 19/09 A3028 RMK A01 T01870089  RH  053%=      5-min Rain = 0
KCL1 240634Z 13006KT 19/09 A3028 RMK A01 T01870089  RH  053%=      5-min Rain = 0
KCL1 240635Z 13006KT 19/09 A3028 RMK A01 T01870089  RH  053%=      5-min Rain = 0
KCL1 240636Z 13006KT 19/09 A3028 RMK A01 T01860089  RH  053%=      5-min Rain = 0
KCL1 240637Z 13006KT 19/09 A3028 RMK A01 T01860089  RH  053%=      5-min Rain = 0
KCL1 240638Z 13006KT 19/09 A3028 RMK A01 T01850089  RH  053%=      5-min Rain = 0
KCL1 240639Z 13006KT 19/09 A3028 RMK A01 T01850089  RH  053%=      5-min Rain = 0
KCL1 240640Z 13006KT 19/09 A3028 RMK A01 T01850089  RH  054%=      5-min Rain = 0
KCL1 240641Z 13006KT 18/09 A3028 RMK A01 T01840089  RH  054%=      5-min Rain = 0
KCL1 240642Z 13006KT 18/09 A3028 RMK A01 T01840089  RH  054%=      5-min Rain = 0
KCL1 240643Z 13006KT 18/09 A3028 RMK A01 T01840089  RH  054%=      5-min Rain = 0
KCL1 240644Z 13006KT 18/09 A3028 RMK A01 T01830089  RH  054%=      5-min Rain = 0
KCL1 240645Z 13006KT 18/09 A3028 RMK A01 T01830089  RH  054%=      5-min Rain = 0
KCL1 240646Z 13007KT 18/09 A3028 RMK A01 T01820089  RH  054%=      5-min Rain = 0
KCL1 240647Z 13007KT 18/09 A3028 RMK A01 T01820088  RH  054%=      5-min Rain = 0
KCL1 240648Z 13007KT 18/09 A3028 RMK A01 T01820089  RH  054%=      5-min Rain = 0
KCL1 240649Z 13007KT 18/09 A3028 RMK A01 T01820089  RH  054%=      5-min Rain = 0
KCL1 240650Z 13006KT 18/09 A3028 RMK A01 T01810089  RH  055%=      5-min Rain = 0
KCL1 240651Z 13006KT 18/09 A3028 RMK A01 T01800088  RH  055%=      5-min Rain = 0
KCL1 240652Z 13006KT 18/09 A3028 RMK A01 T01800088  RH  055%=      5-min Rain = 0
KCL1 240653Z 13006KT 18/09 A3028 RMK A01 T01790088  RH  055%=      5-min Rain = 0
KCL1 240654Z 13006KT 18/09 A3028 RMK A01 T01790088  RH  055%=      5-min Rain = 0
KCL1 240655Z 13006KT 18/09 A3028 RMK A01 T01790088  RH  055%=      5-min Rain = 0
KCL1 240656Z 13006KT 18/09 A3027 RMK A01 T01780088  RH  056%=      5-min Rain = 0
KCL1 240657Z 13006KT 18/09 A3027 RMK A01 T01780088  RH  056%=      5-min Rain = 0
KCL1 240658Z 13006KT 18/09 A3027 RMK A01 T01770088  RH  056%=      5-min Rain = 0
KCL1 240659Z 13006KT 18/09 A3027 RMK A01 T01770088  RH  056%=      5-min Rain = 0
KCL1 240700Z 13006KT 18/09 A3027 RMK A01 T01760088  RH  056%=      5-min Rain = 0
KCL1 240701Z 13006KT 18/09 A3027 RMK A01 T01760088  RH  056%=      5-min Rain = 0
KCL1 240702Z 13006KT 18/09 A3027 RMK A01 T01760088  RH  056%=      5-min Rain = 0
KCL1 240703Z 13006KT 18/09 A3027 RMK A01 T01760088  RH  056%=      5-min Rain = 0
KCL1 240704Z 13006KT 18/09 A3027 RMK A01 T01750087  RH  056%=      5-min Rain = 0
KCL1 240705Z 13006KT 18/09 A3027 RMK A01 T01750088  RH  056%=      5-min Rain = 0
KCL1 240706Z 13006KT 18/09 A3027 RMK A01 T01750088  RH  056%=      5-min Rain = 0
KCL1 240707Z 13006KT 18/09 A3027 RMK A01 T01750087  RH  056%=      5-min Rain = 0
KCL1 240708Z 13006KT 18/09 A3027 RMK A01 T01750087  RH  056%=      5-min Rain = 0
KCL1 240709Z 12006KT 18/09 A3027 RMK A01 T01750087  RH  056%=      5-min Rain = 0
KCL1 240710Z 12007KT 18/09 A3027 RMK A01 T01750087  RH  056%=      5-min Rain = 0
KCL1 240711Z 12007KT 17/09 A3027 RMK A01 T01740087  RH  056%=      5-min Rain = 0
KCL1 240712Z 12007KT 18/09 A3027 RMK A01 T01750087  RH  056%=      5-min Rain = 0
KCL1 240713Z 12007KT 18/09 A3027 RMK A01 T01750087  RH  056%=      5-min Rain = 0
KCL1 240714Z 12007KT 18/09 A3027 RMK A01 T01750086  RH  056%=      5-min Rain = 0
KCL1 240715Z 12007KT 18/09 A3027 RMK A01 T01750086  RH  056%=      5-min Rain = 0
KCL1 240716Z 13007KT 18/09 A3027 RMK A01 T01750086  RH  056%=      5-min Rain = 0
KCL1 240717Z 13008KT 18/09 A3027 RMK A01 T01750086  RH  056%=      5-min Rain = 0
KCL1 240718Z 13007KT 18/09 A3027 RMK A01 T01750086  RH  056%=      5-min Rain = 0
KCL1 240719Z 13007KT 18/09 A3027 RMK A01 T01750086  RH  056%=      5-min Rain = 0
KCL1 240720Z 13007KT 18/09 A3027 RMK A01 T01750086  RH  056%=      5-min Rain = 0
KCL1 240721Z 13007KT 18/09 A3027 RMK A01 T01750086  RH  056%=      5-min Rain = 0
KCL1 240722Z 13007KT 18/09 A3027 RMK A01 T01750086  RH  056%=      5-min Rain = 0
KCL1 240723Z 13007KT 18/09 A3027 RMK A01 T01750085  RH  056%=      5-min Rain = 0
KCL1 240724Z 13007KT 18/09 A3027 RMK A01 T01750085  RH  056%=      5-min Rain = 0
KCL1 240725Z 13007KT 18/09 A3027 RMK A01 T01750085  RH  056%=      5-min Rain = 0
KCL1 240726Z 13007KT 18/09 A3027 RMK A01 T01750085  RH  055%=      5-min Rain = 0
KCL1 240727Z 13007KT 18/09 A3027 RMK A01 T01750085  RH  055%=      5-min Rain = 0
KCL1 240728Z 13007KT 18/08 A3027 RMK A01 T01750084  RH  055%=      5-min Rain = 0
KCL1 240729Z 13007KT 17/08 A3027 RMK A01 T01740084  RH  055%=      5-min Rain = 0
KCL1 240730Z 13007KT 18/08 A3027 RMK A01 T01750084  RH  055%=      5-min Rain = 0
KCL1 240731Z 13007KT 18/08 A3027 RMK A01 T01750084  RH  055%=      5-min Rain = 0
KCL1 240732Z 13007KT 18/08 A3027 RMK A01 T01750083  RH  055%=      5-min Rain = 0
KCL1 240733Z 13007KT 18/08 A3027 RMK A01 T01760083  RH  055%=      5-min Rain = 0
KCL1 240734Z 13006KT 18/08 A3027 RMK A01 T01760083  RH  054%=      5-min Rain = 0
KCL1 240735Z 14006KT 18/08 A3027 RMK A01 T01760083  RH  054%=      5-min Rain = 0
KCL1 240736Z 14006KT 18/08 A3027 RMK A01 T01760083  RH  054%=      5-min Rain = 0
KCL1 240737Z 14005KT 18/08 A3027 RMK A01 T01760083  RH  054%=      5-min Rain = 0
KCL1 240738Z 14005KT 18/08 A3027 RMK A01 T01760083  RH  054%=      5-min Rain = 0
KCL1 240739Z 14005KT 18/08 A3027 RMK A01 T01760082  RH  054%=      5-min Rain = 0
KCL1 240740Z 14005KT 18/08 A3027 RMK A01 T01760083  RH  054%=      5-min Rain = 0
KCL1 240741Z 14005KT 18/08 A3027 RMK A01 T01760082  RH  054%=      5-min Rain = 0
KCL1 240742Z 14005KT 18/08 A3027 RMK A01 T01750082  RH  054%=      5-min Rain = 0
KCL1 240743Z 14005KT 18/08 A3027 RMK A01 T01760082  RH  054%=      5-min Rain = 0
KCL1 240744Z 15005KT 18/08 A3027 RMK A01 T01750081  RH  054%=      5-min Rain = 0
KCL1 240745Z 15005KT 18/08 A3027 RMK A01 T01750081  RH  054%=      5-min Rain = 0
KCL1 240746Z 15005KT 18/08 A3027 RMK A01 T01760081  RH  054%=      5-min Rain = 0
KCL1 240747Z 15006KT 18/08 A3027 RMK A01 T01760081  RH  054%=      5-min Rain = 0
KCL1 240748Z 15005KT 18/08 A3027 RMK A01 T01760081  RH  054%=      5-min Rain = 0
KCL1 240749Z 15006KT 18/08 A3027 RMK A01 T01760081  RH  054%=      5-min Rain = 0
KCL1 240750Z 15006KT 18/08 A3027 RMK A01 T01760081  RH  053%=      5-min Rain = 0
KCL1 240751Z 15006KT 18/08 A3027 RMK A01 T01760081  RH  053%=      5-min Rain = 0
KCL1 240752Z 15006KT 18/08 A3027 RMK A01 T01770080  RH  053%=      5-min Rain = 0
KCL1 240753Z 15006KT 18/08 A3027 RMK A01 T01770080  RH  053%=      5-min Rain = 0
KCL1 240754Z 15005KT 18/08 A3027 RMK A01 T01780080  RH  053%=      5-min Rain = 0
KCL1 240755Z 16005KT 18/08 A3027 RMK A01 T01790080  RH  052%=      5-min Rain = 0
KCL1 240756Z 16006KT 18/08 A3027 RMK A01 T01800079  RH  052%=      5-min Rain = 0
KCL1 240757Z 16006KT 18/08 A3027 RMK A01 T01810079  RH  051%=      5-min Rain = 0
KCL1 240758Z 16006KT 18/08 A3027 RMK A01 T01820079  RH  051%=      5-min Rain = 0
KCL1 240759Z 16007KT 18/08 A3027 RMK A01 T01830079  RH  051%=      5-min Rain = 0
KCL1 240800Z 15006KT 18/08 A3027 RMK A01 T01840079  RH  050%=      5-min Rain = 0
KCL1 240801Z 16006KT 19/08 A3027 RMK A01 T01850079  RH  050%=      5-min Rain = 0
KCL1 240802Z 16006KT 19/08 A3027 RMK A01 T01860079  RH  050%=      5-min Rain = 0
KCL1 240803Z 15006KT 19/08 A3027 RMK A01 T01860079  RH  050%=      5-min Rain = 0
KCL1 240804Z 16006KT 19/08 A3027 RMK A01 T01860079  RH  050%=      5-min Rain = 0
KCL1 240805Z 16005KT 19/08 A3027 RMK A01 T01860079  RH  050%=      5-min Rain = 0
KCL1 240806Z 16006KT 19/08 A3027 RMK A01 T01860079  RH  050%=      5-min Rain = 0
KCL1 240807Z 16005KT 19/08 A3027 RMK A01 T01860079  RH  050%=      5-min Rain = 0
KCL1 240808Z 15005KT 19/08 A3027 RMK A01 T01860079  RH  050%=      5-min Rain = 0
KCL1 240809Z 15005KT 19/08 A3027 RMK A01 T01850079  RH  050%=      5-min Rain = 0
KCL1 240810Z 15004KT 18/08 A3027 RMK A01 T01840079  RH  050%=      5-min Rain = 0
KCL1 240811Z 15004KT 18/08 A3027 RMK A01 T01840079  RH  050%=      5-min Rain = 0
KCL1 240812Z 15004KT 18/08 A3027 RMK A01 T01830079  RH  051%=      5-min Rain = 0
KCL1 240813Z 15004KT 18/08 A3027 RMK A01 T01830079  RH  051%=      5-min Rain = 0
KCL1 240814Z 15005KT 18/08 A3027 RMK A01 T01820079  RH  051%=      5-min Rain = 0
KCL1 240815Z 15005KT 18/08 A3027 RMK A01 T01820078  RH  051%=      5-min Rain = 0
KCL1 240816Z 15005KT 18/08 A3027 RMK A01 T01820078  RH  051%=      5-min Rain = 0
KCL1 240817Z 15004KT 18/08 A3027 RMK A01 T01820078  RH  051%=      5-min Rain = 0
KCL1 240818Z 15004KT 18/08 A3027 RMK A01 T01820079  RH  051%=      5-min Rain = 0
KCL1 240819Z 16004KT 18/08 A3027 RMK A01 T01820078  RH  051%=      5-min Rain = 0
KCL1 240820Z 16004KT 18/08 A3027 RMK A01 T01810078  RH  051%=      5-min Rain = 0
KCL1 240821Z 16004KT 18/08 A3027 RMK A01 T01810078  RH  051%=      5-min Rain = 0
KCL1 240822Z 16004KT 18/08 A3027 RMK A01 T01800078  RH  051%=      5-min Rain = 0
KCL1 240823Z 16004KT 18/08 A3027 RMK A01 T01800078  RH  051%=      5-min Rain = 0
KCL1 240824Z 16004KT 18/08 A3027 RMK A01 T01800078  RH  051%=      5-min Rain = 0
KCL1 240825Z 16004KT 18/08 A3027 RMK A01 T01800078  RH  051%=      5-min Rain = 0
KCL1 240826Z 16004KT 18/08 A3027 RMK A01 T01800078  RH  051%=      5-min Rain = 0
KCL1 240827Z 17004KT 18/08 A3027 RMK A01 T01800078  RH  051%=      5-min Rain = 0
KCL1 240828Z 17004KT 18/08 A3027 RMK A01 T01800078  RH  051%=      5-min Rain = 0
KCL1 240829Z 17004KT 18/08 A3027 RMK A01 T01800078  RH  051%=      5-min Rain = 0
KCL1 240830Z 17004KT 18/08 A3027 RMK A01 T01800078  RH  051%=      5-min Rain = 0
KCL1 240831Z 17004KT 18/08 A3027 RMK A01 T01800079  RH  052%=      5-min Rain = 0
KCL1 240832Z 17003KT 18/08 A3027 RMK A01 T01800079  RH  052%=      5-min Rain = 0
KCL1 240833Z 17003KT 18/08 A3027 RMK A01 T01800079  RH  052%=      5-min Rain = 0
KCL1 240834Z 17003KT 18/08 A3027 RMK A01 T01800079  RH  052%=      5-min Rain = 0
KCL1 240835Z 16003KT 18/08 A3027 RMK A01 T01790079  RH  052%=      5-min Rain = 0
KCL1 240836Z 16004KT 18/08 A3027 RMK A01 T01790079  RH  052%=      5-min Rain = 0
KCL1 240837Z 16003KT 18/08 A3027 RMK A01 T01780079  RH  052%=      5-min Rain = 0
KCL1 240838Z 16004KT 18/08 A3027 RMK A01 T01770078  RH  052%=      5-min Rain = 0
KCL1 240839Z 16004KT 18/08 A3027 RMK A01 T01770079  RH  052%=      5-min Rain = 0
KCL1 240840Z 16004KT 18/08 A3027 RMK A01 T01770078  RH  052%=      5-min Rain = 0
KCL1 240841Z 16004KT 18/08 A3027 RMK A01 T01760078  RH  053%=      5-min Rain = 0
KCL1 240842Z 16003KT 18/08 A3027 RMK A01 T01760078  RH  053%=      5-min Rain = 0
KCL1 240843Z 16003KT 18/08 A3027 RMK A01 T01750078  RH  053%=      5-min Rain = 0
KCL1 240844Z 16004KT 18/08 A3027 RMK A01 T01750078  RH  053%=      5-min Rain = 0
KCL1 240845Z 16004KT 17/08 A3027 RMK A01 T01740077  RH  053%=      5-min Rain = 0
KCL1 240846Z 15003KT 17/08 A3027 RMK A01 T01740077  RH  053%=      5-min Rain = 0
KCL1 240847Z 15003KT 17/08 A3027 RMK A01 T01740077  RH  053%=      5-min Rain = 0
KCL1 240848Z 16004KT 17/08 A3027 RMK A01 T01740077  RH  053%=      5-min Rain = 0
KCL1 240849Z 15004KT 17/08 A3027 RMK A01 T01730077  RH  053%=      5-min Rain = 0
KCL1 240850Z 15004KT 17/08 A3027 RMK A01 T01720077  RH  054%=      5-min Rain = 0
KCL1 240851Z 15004KT 17/08 A3027 RMK A01 T01710077  RH  054%=      5-min Rain = 0
KCL1 240852Z 15004KT 17/08 A3027 RMK A01 T01710077  RH  054%=      5-min Rain = 0
KCL1 240853Z 15004KT 17/08 A3027 RMK A01 T01720078  RH  054%=      5-min Rain = 0
KCL1 240854Z 15004KT 17/08 A3027 RMK A01 T01730078  RH  054%=      5-min Rain = 0
KCL1 240855Z 15004KT 17/08 A3027 RMK A01 T01740078  RH  053%=      5-min Rain = 0
KCL1 240856Z 15004KT 17/08 A3027 RMK A01 T01740078  RH  053%=      5-min Rain = 0
KCL1 240857Z 15004KT 18/08 A3027 RMK A01 T01750078  RH  053%=      5-min Rain = 0
KCL1 240858Z 15005KT 18/08 A3027 RMK A01 T01750078  RH  053%=      5-min Rain = 0
KCL1 240859Z 15005KT 18/08 A3027 RMK A01 T01760078  RH  053%=      5-min Rain = 0
KCL1 240900Z 15005KT 18/08 A3027 RMK A01 T01760078  RH  053%=      5-min Rain = 0
KCL1 240901Z 15005KT 18/08 A3027 RMK A01 T01760078  RH  053%=      5-min Rain = 0
KCL1 240902Z 15005KT 18/08 A3027 RMK A01 T01760078  RH  052%=      5-min Rain = 0
KCL1 240903Z 16005KT 18/08 A3027 RMK A01 T01760078  RH  052%=      5-min Rain = 0
KCL1 240904Z 16005KT 18/08 A3027 RMK A01 T01770078  RH  052%=      5-min Rain = 0
KCL1 240905Z 16005KT 18/08 A3027 RMK A01 T01770078  RH  052%=      5-min Rain = 0
KCL1 240906Z 16005KT 18/08 A3027 RMK A01 T01770078  RH  052%=      5-min Rain = 0
KCL1 240907Z 17005KT 18/08 A3027 RMK A01 T01770078  RH  052%=      5-min Rain = 0
KCL1 240908Z 18005KT 18/08 A3027 RMK A01 T01770078  RH  052%=      5-min Rain = 0
KCL1 240909Z 18004KT 18/08 A3027 RMK A01 T01770078  RH  052%=      5-min Rain = 0
KCL1 240910Z 19004KT 18/08 A3027 RMK A01 T01760078  RH  052%=      5-min Rain = 0
KCL1 240911Z 18004KT 18/08 A3027 RMK A01 T01760078  RH  052%=      5-min Rain = 0
KCL1 240912Z 18004KT 18/08 A3027 RMK A01 T01760078  RH  053%=      5-min Rain = 0
KCL1 240913Z 17003KT 18/08 A3027 RMK A01 T01760078  RH  052%=      5-min Rain = 0
KCL1 240914Z 17003KT 18/08 A3027 RMK A01 T01760078  RH  052%=      5-min Rain = 0
KCL1 240915Z 16003KT 18/08 A3027 RMK A01 T01760078  RH  053%=      5-min Rain = 0
KCL1 240916Z 16004KT 18/08 A3027 RMK A01 T01750078  RH  053%=      5-min Rain = 0
KCL1 240917Z 16004KT 17/08 A3027 RMK A01 T01740078  RH  053%=      5-min Rain = 0
KCL1 240918Z 16004KT 17/08 A3027 RMK A01 T01740079  RH  053%=      5-min Rain = 0
KCL1 240919Z 16004KT 17/08 A3027 RMK A01 T01740078  RH  053%=      5-min Rain = 0
KCL1 240920Z 16003KT 17/08 A3027 RMK A01 T01730078  RH  054%=      5-min Rain = 0
KCL1 240921Z 15003KT 17/08 A3027 RMK A01 T01710077  RH  054%=      5-min Rain = 0
KCL1 240922Z 15004KT 17/08 A3027 RMK A01 T01690077  RH  054%=      5-min Rain = 0
KCL1 240923Z 15004KT 17/08 A3027 RMK A01 T01670076  RH  055%=      5-min Rain = 0
KCL1 240924Z 15004KT 17/08 A3027 RMK A01 T01660076  RH  055%=      5-min Rain = 0
KCL1 240925Z 15004KT 17/08 A3027 RMK A01 T01650076  RH  056%=      5-min Rain = 0
KCL1 240926Z 15004KT 16/08 A3027 RMK A01 T01640077  RH  056%=      5-min Rain = 0
KCL1 240927Z 15004KT 16/08 A3027 RMK A01 T01630077  RH  056%=      5-min Rain = 0
KCL1 240928Z 15004KT 16/08 A3027 RMK A01 T01630077  RH  057%=      5-min Rain = 0
KCL1 240929Z 15004KT 16/08 A3027 RMK A01 T01620077  RH  057%=      5-min Rain = 0
KCL1 240930Z 15005KT 16/08 A3027 RMK A01 T01620077  RH  057%=      5-min Rain = 0
KCL1 240931Z 15005KT 16/08 A3027 RMK A01 T01620077  RH  057%=      5-min Rain = 0
KCL1 240932Z 15005KT 16/08 A3027 RMK A01 T01630078  RH  057%=      5-min Rain = 0
KCL1 240933Z 15005KT 16/08 A3027 RMK A01 T01640078  RH  057%=      5-min Rain = 0
KCL1 240934Z 16005KT 17/08 A3027 RMK A01 T01650078  RH  056%=      5-min Rain = 0
KCL1 240935Z 16005KT 17/08 A3027 RMK A01 T01650078  RH  056%=      5-min Rain = 0
KCL1 240936Z 17005KT 17/08 A3027 RMK A01 T01660079  RH  056%=      5-min Rain = 0
KCL1 240937Z 17005KT 17/08 A3027 RMK A01 T01670079  RH  056%=      5-min Rain = 0
KCL1 240938Z 17005KT 17/08 A3027 RMK A01 T01670079  RH  056%=      5-min Rain = 0
KCL1 240939Z 17005KT 17/08 A3027 RMK A01 T01670079  RH  056%=      5-min Rain = 0
KCL1 240940Z 17005KT 17/08 A3027 RMK A01 T01680079  RH  056%=      5-min Rain = 0
KCL1 240941Z 16005KT 17/08 A3027 RMK A01 T01680079  RH  056%=      5-min Rain = 0
KCL1 240942Z 16005KT 17/08 A3027 RMK A01 T01690079  RH  055%=      5-min Rain = 0
KCL1 240943Z 16004KT 17/08 A3027 RMK A01 T01690079  RH  055%=      5-min Rain = 0
KCL1 240944Z 16004KT 17/08 A3027 RMK A01 T01690079  RH  056%=      5-min Rain = 0
KCL1 240945Z 16004KT 17/08 A3027 RMK A01 T01670079  RH  056%=      5-min Rain = 0
KCL1 240946Z 16004KT 17/08 A3027 RMK A01 T01650079  RH  057%=      5-min Rain = 0
KCL1 240947Z 16004KT 16/08 A3027 RMK A01 T01640079  RH  057%=      5-min Rain = 0
KCL1 240948Z 16003KT 16/08 A3027 RMK A01 T01630079  RH  057%=      5-min Rain = 0
KCL1 240949Z 16003KT 16/08 A3027 RMK A01 T01630079  RH  057%=      5-min Rain = 0
KCL1 240950Z 16003KT 16/08 A3027 RMK A01 T01620078  RH  057%=      5-min Rain = 0
KCL1 240951Z 16003KT 16/08 A3027 RMK A01 T01640079  RH  057%=      5-min Rain = 0
KCL1 240952Z 17002KT 17/08 A3027 RMK A01 T01670079  RH  056%=      5-min Rain = 0
KCL1 240953Z 17002KT 17/08 A3027 RMK A01 T01700080  RH  055%=      5-min Rain = 0
KCL1 240954Z 17002KT 17/08 A3027 RMK A01 T01730080  RH  055%=      5-min Rain = 0
KCL1 240955Z 18002KT 17/08 A3027 RMK A01 T01740080  RH  054%=      5-min Rain = 0
KCL1 240956Z 19001KT 18/08 A3027 RMK A01 T01770081  RH  053%=      5-min Rain = 0
KCL1 240957Z 19001KT 18/08 A3027 RMK A01 T01770081  RH  053%=      5-min Rain = 0
KCL1 240958Z 19002KT 18/08 A3027 RMK A01 T01770081  RH  053%=      5-min Rain = 0
KCL1 240959Z 19002KT 18/08 A3027 RMK A01 T01760081  RH  053%=      5-min Rain = 0
KCL1 241000Z 18002KT 18/08 A3027 RMK A01 T01760080  RH  054%=      5-min Rain = 0
KCL1 241001Z 18002KT 18/08 A3027 RMK A01 T01770081  RH  053%=      5-min Rain = 0
KCL1 241002Z 18002KT 18/08 A3027 RMK A01 T01780081  RH  053%=      5-min Rain = 0
KCL1 241003Z 18003KT 18/08 A3027 RMK A01 T01780081  RH  053%=      5-min Rain = 0
KCL1 241004Z 19003KT 18/08 A3027 RMK A01 T01780081  RH  053%=      5-min Rain = 0
KCL1 241005Z 19003KT 18/08 A3027 RMK A01 T01780081  RH  053%=      5-min Rain = 0
KCL1 241006Z 18003KT 18/08 A3027 RMK A01 T01780082  RH  053%=      5-min Rain = 0
KCL1 241007Z 18003KT 18/08 A3027 RMK A01 T01790081  RH  053%=      5-min Rain = 0
KCL1 241008Z 17003KT 18/08 A3027 RMK A01 T01800081  RH  053%=      5-min Rain = 0
KCL1 241009Z 17003KT 18/08 A3027 RMK A01 T01800081  RH  052%=      5-min Rain = 0
KCL1 241010Z 17004KT 18/08 A3027 RMK A01 T01800081  RH  052%=      5-min Rain = 0
KCL1 241011Z 17003KT 18/08 A3027 RMK A01 T01800080  RH  052%=      5-min Rain = 0
KCL1 241012Z 17003KT 18/08 A3027 RMK A01 T01800081  RH  052%=      5-min Rain = 0
KCL1 241013Z 17003KT 18/08 A3027 RMK A01 T01790081  RH  052%=      5-min Rain = 0
KCL1 241014Z 18003KT 18/08 A3027 RMK A01 T01790080  RH  053%=      5-min Rain = 0
KCL1 241015Z 19003KT 18/08 A3027 RMK A01 T01780081  RH  053%=      5-min Rain = 0
KCL1 241016Z 18003KT 18/08 A3027 RMK A01 T01770081  RH  053%=      5-min Rain = 0
KCL1 241017Z 18003KT 18/08 A3027 RMK A01 T01770081  RH  053%=      5-min Rain = 0
KCL1 241018Z 18003KT 18/08 A3027 RMK A01 T01760081  RH  053%=      5-min Rain = 0
KCL1 241019Z 18003KT 18/08 A3027 RMK A01 T01760081  RH  054%=      5-min Rain = 0
KCL1 241020Z 18002KT 18/08 A3027 RMK A01 T01750081  RH  054%=      5-min Rain = 0
KCL1 241021Z 18002KT 17/08 A3027 RMK A01 T01730080  RH  054%=      5-min Rain = 0
KCL1 241022Z 18002KT 17/08 A3027 RMK A01 T01710080  RH  055%=      5-min Rain = 0
KCL1 241023Z 17002KT 17/08 A3027 RMK A01 T01700080  RH  055%=      5-min Rain = 0
KCL1 241024Z 17002KT 17/08 A3027 RMK A01 T01690080  RH  056%=      5-min Rain = 0
KCL1 241025Z 16002KT 17/08 A3027 RMK A01 T01690081  RH  056%=      5-min Rain = 0
KCL1 241026Z 16003KT 17/08 A3028 RMK A01 T01680080  RH  056%=      5-min Rain = 0
KCL1 241027Z 16003KT 17/08 A3028 RMK A01 T01680080  RH  056%=      5-min Rain = 0
KCL1 241028Z 16003KT 17/08 A3028 RMK A01 T01680080  RH  056%=      5-min Rain = 0
KCL1 241029Z 16003KT 17/08 A3028 RMK A01 T01680080  RH  056%=      5-min Rain = 0
KCL1 241030Z 16003KT 17/08 A3028 RMK A01 T01680079  RH  056%=      5-min Rain = 0
KCL1 241031Z 16003KT 17/08 A3028 RMK A01 T01680079  RH  056%=      5-min Rain = 0
KCL1 241032Z 16003KT 17/08 A3028 RMK A01 T01680079  RH  056%=      5-min Rain = 0
KCL1 241033Z 16003KT 17/08 A3028 RMK A01 T01680079  RH  056%=      5-min Rain = 0
KCL1 241034Z 16003KT 17/08 A3028 RMK A01 T01680079  RH  056%=      5-min Rain = 0
KCL1 241035Z 16003KT 17/08 A3028 RMK A01 T01680079  RH  056%=      5-min Rain = 0
KCL1 241036Z 16003KT 17/08 A3028 RMK A01 T01670079  RH  056%=      5-min Rain = 0
KCL1 241037Z 15003KT 17/08 A3028 RMK A01 T01670079  RH  056%=      5-min Rain = 0
KCL1 241038Z 15003KT 17/08 A3028 RMK A01 T01660078  RH  056%=      5-min Rain = 0
KCL1 241039Z 15003KT 17/08 A3028 RMK A01 T01650078  RH  056%=      5-min Rain = 0
KCL1 241040Z 15003KT 16/08 A3028 RMK A01 T01640078  RH  057%=      5-min Rain = 0
KCL1 241041Z 15003KT 16/08 A3028 RMK A01 T01630078  RH  057%=      5-min Rain = 0
KCL1 241042Z 15003KT 16/08 A3028 RMK A01 T01620077  RH  057%=      5-min Rain = 0
KCL1 241043Z 16003KT 16/08 A3028 RMK A01 T01630077  RH  057%=      5-min Rain = 0
KCL1 241044Z 16003KT 17/08 A3028 RMK A01 T01660078  RH  056%=      5-min Rain = 0
KCL1 241045Z 16003KT 17/08 A3028 RMK A01 T01680078  RH  055%=      5-min Rain = 0
KCL1 241046Z 16003KT 17/08 A3028 RMK A01 T01690078  RH  055%=      5-min Rain = 0
KCL1 241047Z 17003KT 17/08 A3028 RMK A01 T01690078  RH  055%=      5-min Rain = 0
KCL1 241048Z 17003KT 17/08 A3028 RMK A01 T01690078  RH  055%=      5-min Rain = 0
KCL1 241049Z 17003KT 17/08 A3028 RMK A01 T01700078  RH  055%=      5-min Rain = 0
KCL1 241050Z 18003KT 17/08 A3028 RMK A01 T01710078  RH  054%=      5-min Rain = 0
KCL1 241051Z 18003KT 17/08 A3028 RMK A01 T01720078  RH  054%=      5-min Rain = 0
KCL1 241052Z 19003KT 17/08 A3028 RMK A01 T01730078  RH  053%=      5-min Rain = 0
KCL1 241053Z 19003KT 17/08 A3028 RMK A01 T01730078  RH  053%=      5-min Rain = 0
KCL1 241054Z 19003KT 17/08 A3028 RMK A01 T01740078  RH  053%=      5-min Rain = 0
KCL1 241055Z 19003KT 18/08 A3028 RMK A01 T01750078  RH  053%=      5-min Rain = 0
KCL1 241056Z 19003KT 18/08 A3028 RMK A01 T01750079  RH  053%=      5-min Rain = 0
KCL1 241057Z 19003KT 18/08 A3028 RMK A01 T01760079  RH  053%=      5-min Rain = 0
KCL1 241058Z 18003KT 18/08 A3028 RMK A01 T01770079  RH  053%=      5-min Rain = 0
KCL1 241059Z 19003KT 18/08 A3028 RMK A01 T01780080  RH  053%=      5-min Rain = 0
KCL1 241100Z 19003KT 18/08 A3028 RMK A01 T01780080  RH  053%=      5-min Rain = 0
KCL1 241101Z 19003KT 18/08 A3028 RMK A01 T01780080  RH  053%=      5-min Rain = 0
KCL1 241102Z 20003KT 18/08 A3028 RMK A01 T01780080  RH  053%=      5-min Rain = 0
KCL1 241103Z 20003KT 18/08 A3028 RMK A01 T01780080  RH  053%=      5-min Rain = 0
KCL1 241104Z 21002KT 18/08 A3028 RMK A01 T01780081  RH  053%=      5-min Rain = 0
KCL1 241105Z 20003KT 18/08 A3028 RMK A01 T01770081  RH  053%=      5-min Rain = 0
KCL1 241106Z 19002KT 18/08 A3028 RMK A01 T01770081  RH  053%=      5-min Rain = 0
KCL1 241107Z 18003KT 18/08 A3028 RMK A01 T01770081  RH  053%=      5-min Rain = 0
KCL1 241108Z 18003KT 18/08 A3028 RMK A01 T01770081  RH  053%=      5-min Rain = 0
KCL1 241109Z 19003KT 18/08 A3028 RMK A01 T01780081  RH  053%=      5-min Rain = 0
KCL1 241110Z 18003KT 18/08 A3028 RMK A01 T01780081  RH  053%=      5-min Rain = 0
KCL1 241111Z 18003KT 18/08 A3028 RMK A01 T01780081  RH  053%=      5-min Rain = 0
KCL1 241112Z 18003KT 18/08 A3028 RMK A01 T01780081  RH  053%=      5-min Rain = 0
KCL1 241113Z 18003KT 18/08 A3028 RMK A01 T01780081  RH  053%=      5-min Rain = 0
KCL1 241114Z 18004KT 18/08 A3028 RMK A01 T01790082  RH  053%=      5-min Rain = 0
KCL1 241115Z 18004KT 18/08 A3028 RMK A01 T01790082  RH  053%=      5-min Rain = 0
KCL1 241116Z 18004KT 18/08 A3028 RMK A01 T01790081  RH  053%=      5-min Rain = 0
KCL1 241117Z 18004KT 18/08 A3028 RMK A01 T01790082  RH  053%=      5-min Rain = 0
KCL1 241118Z 17004KT 18/08 A3028 RMK A01 T01790082  RH  053%=      5-min Rain = 0
KCL1 241119Z 17004KT 18/08 A3028 RMK A01 T01780081  RH  053%=      5-min Rain = 0
KCL1 241120Z 17004KT 18/08 A3028 RMK A01 T01780081  RH  053%=      5-min Rain = 0
KCL1 241121Z 17004KT 18/08 A3028 RMK A01 T01770081  RH  053%=      5-min Rain = 0
KCL1 241122Z 17004KT 18/08 A3028 RMK A01 T01770081  RH  053%=      5-min Rain = 0
KCL1 241123Z 17004KT 18/08 A3028 RMK A01 T01760080  RH  053%=      5-min Rain = 0
KCL1 241124Z 17004KT 18/08 A3028 RMK A01 T01750080  RH  054%=      5-min Rain = 0
KCL1 241125Z 17004KT 18/08 A3028 RMK A01 T01750080  RH  054%=      5-min Rain = 0
KCL1 241126Z 18004KT 18/08 A3028 RMK A01 T01760080  RH  054%=      5-min Rain = 0
KCL1 241127Z 18004KT 18/08 A3028 RMK A01 T01760080  RH  053%=      5-min Rain = 0
KCL1 241128Z 18004KT 18/08 A3028 RMK A01 T01760080  RH  053%=      5-min Rain = 0
KCL1 241129Z 18004KT 18/08 A3028 RMK A01 T01770080  RH  053%=      5-min Rain = 0
KCL1 241130Z 18004KT 18/08 A3028 RMK A01 T01770080  RH  053%=      5-min Rain = 0
KCL1 241131Z 18004KT 18/08 A3028 RMK A01 T01770080  RH  053%=      5-min Rain = 0
KCL1 241132Z 18004KT 18/08 A3028 RMK A01 T01760080  RH  053%=      5-min Rain = 0
KCL1 241133Z 18004KT 18/08 A3028 RMK A01 T01760080  RH  053%=      5-min Rain = 0
KCL1 241134Z 18004KT 18/08 A3028 RMK A01 T01760080  RH  053%=      5-min Rain = 0
KCL1 241135Z 18004KT 18/08 A3028 RMK A01 T01750080  RH  054%=      5-min Rain = 0
KCL1 241136Z 18005KT 18/08 A3028 RMK A01 T01750080  RH  054%=      5-min Rain = 0
KCL1 241137Z 18005KT 18/08 A3028 RMK A01 T01750080  RH  054%=      5-min Rain = 0
KCL1 241138Z 18005KT 17/08 A3028 RMK A01 T01740080  RH  054%=      5-min Rain = 0
KCL1 241139Z 18005KT 18/08 A3028 RMK A01 T01750080  RH  054%=      5-min Rain = 0
KCL1 241140Z 18005KT 18/08 A3028 RMK A01 T01750080  RH  054%=      5-min Rain = 0
KCL1 241141Z 18005KT 18/08 A3028 RMK A01 T01750080  RH  054%=      5-min Rain = 0
KCL1 241142Z 18005KT 18/08 A3028 RMK A01 T01760081  RH  054%=      5-min Rain = 0
KCL1 241143Z 19005KT 18/08 A3028 RMK A01 T01750080  RH  054%=      5-min Rain = 0
KCL1 241144Z 19004KT 18/08 A3028 RMK A01 T01750080  RH  054%=      5-min Rain = 0
KCL1 241145Z 19004KT 18/08 A3028 RMK A01 T01750081  RH  054%=      5-min Rain = 0
KCL1 241146Z 19004KT 18/08 A3028 RMK A01 T01760081  RH  054%=      5-min Rain = 0
KCL1 241147Z 19004KT 18/08 A3028 RMK A01 T01760081  RH  054%=      5-min Rain = 0
KCL1 241148Z 19004KT 18/08 A3028 RMK A01 T01760082  RH  054%=      5-min Rain = 0
KCL1 241149Z 19004KT 18/08 A3028 RMK A01 T01760082  RH  054%=      5-min Rain = 0
KCL1 241150Z 19004KT 18/08 A3028 RMK A01 T01760082  RH  054%=      5-min Rain = 0
KCL1 241151Z 19004KT 18/08 A3029 RMK A01 T01760082  RH  054%=      5-min Rain = 0
KCL1 241152Z 19004KT 18/08 A3029 RMK A01 T01750082  RH  054%=      5-min Rain = 0
KCL1 241153Z 19004KT 18/08 A3029 RMK A01 T01760082  RH  054%=      5-min Rain = 0
KCL1 241154Z 19004KT 18/08 A3029 RMK A01 T01760081  RH  054%=      5-min Rain = 0
KCL1 241155Z 18004KT 18/08 A3029 RMK A01 T01750082  RH  054%=      5-min Rain = 0
KCL1 241156Z 18004KT 18/08 A3029 RMK A01 T01750081  RH  054%=      5-min Rain = 0
KCL1 241157Z 18004KT 18/08 A3029 RMK A01 T01750081  RH  054%=      5-min Rain = 0
KCL1 241158Z 19004KT 18/08 A3029 RMK A01 T01760081  RH  054%=      5-min Rain = 0
KCL1 241159Z 19005KT 18/08 A3029 RMK A01 T01760081  RH  054%=      5-min Rain = 0
KCL1 241200Z 19005KT 18/08 A3029 RMK A01 T01760081  RH  054%=      5-min Rain = 0
KCL1 241201Z 19005KT 18/08 A3029 RMK A01 T01750080  RH  054%=      5-min Rain = 0
KCL1 241202Z 19005KT 18/08 A3029 RMK A01 T01760080  RH  053%=      5-min Rain = 0
KCL1 241203Z 19005KT 18/08 A3029 RMK A01 T01760080  RH  053%=      5-min Rain = 0
KCL1 241204Z 19005KT 18/08 A3029 RMK A01 T01760080  RH  053%=      5-min Rain = 0
KCL1 241205Z 19005KT 18/08 A3029 RMK A01 T01760080  RH  053%=      5-min Rain = 0
KCL1 241206Z 19005KT 18/08 A3029 RMK A01 T01760080  RH  053%=      5-min Rain = 0
KCL1 241207Z 19004KT 18/08 A3029 RMK A01 T01760080  RH  053%=      5-min Rain = 0
KCL1 241208Z 18004KT 18/08 A3029 RMK A01 T01760080  RH  053%=      5-min Rain = 0
KCL1 241209Z 18004KT 18/08 A3029 RMK A01 T01760079  RH  053%=      5-min Rain = 0
KCL1 241210Z 18005KT 18/08 A3029 RMK A01 T01760080  RH  053%=      5-min Rain = 0
KCL1 241211Z 18005KT 18/08 A3029 RMK A01 T01760080  RH  053%=      5-min Rain = 0
KCL1 241212Z 18004KT 18/08 A3029 RMK A01 T01760080  RH  053%=      5-min Rain = 0
KCL1 241213Z 18005KT 18/08 A3029 RMK A01 T01760080  RH  053%=      5-min Rain = 0
KCL1 241214Z 18004KT 18/08 A3029 RMK A01 T01760079  RH  053%=      5-min Rain = 0
KCL1 241215Z 18005KT 18/08 A3029 RMK A01 T01760079  RH  053%=      5-min Rain = 0
KCL1 241216Z 18005KT 18/08 A3029 RMK A01 T01760079  RH  053%=      5-min Rain = 0
KCL1 241217Z 18005KT 18/08 A3029 RMK A01 T01760080  RH  053%=      5-min Rain = 0
KCL1 241218Z 17005KT 18/08 A3029 RMK A01 T01760080  RH  053%=      5-min Rain = 0
KCL1 241219Z 17005KT 18/08 A3029 RMK A01 T01750079  RH  053%=      5-min Rain = 0
KCL1 241220Z 17006KT 18/08 A3029 RMK A01 T01760079  RH  053%=      5-min Rain = 0
KCL1 241221Z 17005KT 18/08 A3029 RMK A01 T01760079  RH  053%=      5-min Rain = 0
KCL1 241222Z 17005KT 18/08 A3029 RMK A01 T01770079  RH  053%=      5-min Rain = 0
KCL1 241223Z 16005KT 18/08 A3029 RMK A01 T01780079  RH  052%=      5-min Rain = 0
KCL1 241224Z 16005KT 18/08 A3029 RMK A01 T01780079  RH  052%=      5-min Rain = 0
KCL1 241225Z 17006KT 18/08 A3029 RMK A01 T01780079  RH  052%=      5-min Rain = 0
KCL1 241226Z 17006KT 18/08 A3029 RMK A01 T01780079  RH  052%=      5-min Rain = 0
KCL1 241227Z 17006KT 18/08 A3029 RMK A01 T01780079  RH  052%=      5-min Rain = 0
KCL1 241228Z 17006KT 18/08 A3029 RMK A01 T01790080  RH  052%=      5-min Rain = 0
KCL1 241229Z 17006KT 18/08 A3029 RMK A01 T01780079  RH  052%=      5-min Rain = 0
KCL1 241230Z 17006KT 18/08 A3029 RMK A01 T01780080  RH  052%=      5-min Rain = 0
KCL1 241231Z 17006KT 18/08 A3029 RMK A01 T01780080  RH  053%=      5-min Rain = 0
KCL1 241232Z 17006KT 18/08 A3029 RMK A01 T01780080  RH  052%=      5-min Rain = 0
KCL1 241233Z 18005KT 18/08 A3029 RMK A01 T01790081  RH  052%=      5-min Rain = 0
KCL1 241234Z 18005KT 18/08 A3029 RMK A01 T01790081  RH  053%=      5-min Rain = 0
KCL1 241235Z 17005KT 18/08 A3029 RMK A01 T01800081  RH  053%=      5-min Rain = 0
KCL1 241236Z 17005KT 18/08 A3029 RMK A01 T01810082  RH  052%=      5-min Rain = 0
KCL1 241237Z 18006KT 18/08 A3029 RMK A01 T01810082  RH  052%=      5-min Rain = 0
KCL1 241238Z 18007KT 18/08 A3029 RMK A01 T01820083  RH  052%=      5-min Rain = 0
KCL1 241239Z 18006KT 18/08 A3029 RMK A01 T01840083  RH  052%=      5-min Rain = 0
KCL1 241240Z 18007KT 19/08 A3029 RMK A01 T01860084  RH  051%=      5-min Rain = 0
KCL1 241241Z 17005KT 19/08 A3029 RMK A01 T01870084  RH  051%=      5-min Rain = 0
KCL1 241242Z 18006KT 19/09 A3029 RMK A01 T01890085  RH  051%=      5-min Rain = 0
KCL1 241243Z 17005KT 19/09 A3029 RMK A01 T01890085  RH  051%=      5-min Rain = 0
KCL1 241244Z 16005KT 19/08 A3029 RMK A01 T01900084  RH  050%=      5-min Rain = 0
KCL1 241245Z 16004KT 19/09 A3029 RMK A01 T01900085  RH  050%=      5-min Rain = 0
KCL1 241246Z 16004KT 19/09 A3029 RMK A01 T01910085  RH  050%=      5-min Rain = 0
KCL1 241247Z 15004KT 19/08 A3029 RMK A01 T01910084  RH  050%=      5-min Rain = 0
KCL1 241248Z 15004KT 19/08 A3029 RMK A01 T01910083  RH  050%=      5-min Rain = 0
KCL1 241249Z 15004KT 19/08 A3029 RMK A01 T01910084  RH  050%=      5-min Rain = 0
KCL1 241250Z 15003KT 19/09 A3029 RMK A01 T01910085  RH  050%=      5-min Rain = 0
KCL1 241251Z 15003KT 19/09 A3029 RMK A01 T01910087  RH  051%=      5-min Rain = 0
KCL1 241252Z 15004KT 19/09 A3029 RMK A01 T01920087  RH  050%=      5-min Rain = 0
KCL1 241253Z 15003KT 19/09 A3029 RMK A01 T01930087  RH  050%=      5-min Rain = 0
KCL1 241254Z 15003KT 19/09 A3029 RMK A01 T01920086  RH  050%=      5-min Rain = 0
KCL1 241255Z 15004KT 19/09 A3029 RMK A01 T01930087  RH  050%=      5-min Rain = 0
KCL1 241256Z 15004KT 19/09 A3029 RMK A01 T01930088  RH  050%=      5-min Rain = 0
KCL1 241257Z 16003KT 19/09 A3029 RMK A01 T01920087  RH  051%=      5-min Rain = 0
KCL1 241258Z 16004KT 19/09 A3029 RMK A01 T01920088  RH  051%=      5-min Rain = 0
KCL1 241259Z 16005KT 19/09 A3029 RMK A01 T01910087  RH  051%=      5-min Rain = 0
KCL1 241300Z 16004KT 19/09 A3029 RMK A01 T01920087  RH  051%=      5-min Rain = 0
KCL1 241301Z 17004KT 19/09 A3029 RMK A01 T01920088  RH  051%=      5-min Rain = 0
KCL1 241302Z 16004KT 19/09 A3029 RMK A01 T01920089  RH  051%=      5-min Rain = 0
KCL1 241303Z 17005KT 19/09 A303 RMK A01 T01920088  RH  051%=      5-min Rain = 0
KCL1 241304Z 16004KT 19/09 A303 RMK A01 T01930088  RH  051%=      5-min Rain = 0
KCL1 241305Z 16004KT 19/09 A303 RMK A01 T01930089  RH  051%=      5-min Rain = 0
KCL1 241306Z 15006KT 19/09 A303 RMK A01 T01930089  RH  051%=      5-min Rain = 0
KCL1 241307Z 16006KT 19/09 A303 RMK A01 T01940088  RH  050%=      5-min Rain = 0
KCL1 241308Z 16004KT 19/09 A303 RMK A01 T01940088  RH  050%=      5-min Rain = 0
KCL1 241309Z 16005KT 20/09 A303 RMK A01 T01950088  RH  050%=      5-min Rain = 0
KCL1 241310Z 16005KT 20/09 A303 RMK A01 T01950090  RH  050%=      5-min Rain = 0
KCL1 241311Z 17005KT 20/09 A303 RMK A01 T01960090  RH  050%=      5-min Rain = 0
KCL1 241312Z 18005KT 20/09 A303 RMK A01 T01970089  RH  050%=      5-min Rain = 0
KCL1 241313Z 17005KT 20/09 A303 RMK A01 T01970089  RH  050%=      5-min Rain = 0
KCL1 241314Z 17006KT 20/09 A303 RMK A01 T01970089  RH  050%=      5-min Rain = 0
KCL1 241315Z 17006KT 20/09 A303 RMK A01 T01970089  RH  050%=      5-min Rain = 0
KCL1 241316Z 17006KT 20/09 A303 RMK A01 T01970089  RH  050%=      5-min Rain = 0
KCL1 241317Z 17005KT 20/09 A303 RMK A01 T01970089  RH  050%=      5-min Rain = 0
KCL1 241318Z 17006KT 20/09 A303 RMK A01 T01980089  RH  049%=      5-min Rain = 0
KCL1 241319Z 17005KT 20/09 A303 RMK A01 T01980087  RH  049%=      5-min Rain = 0
KCL1 241320Z 15004KT 20/09 A303 RMK A01 T01980088  RH  049%=      5-min Rain = 0
KCL1 241321Z 17004KT 20/09 A303 RMK A01 T01980089  RH  050%=      5-min Rain = 0
KCL1 241322Z 16004KT 20/09 A303 RMK A01 T01980089  RH  049%=      5-min Rain = 0
KCL1 241323Z 16006KT 20/09 A303 RMK A01 T01990090  RH  049%=      5-min Rain = 0
KCL1 241324Z 16005KT 20/09 A303 RMK A01 T01990089  RH  049%=      5-min Rain = 0
KCL1 241325Z 17004KT 20/09 A303 RMK A01 T02000090  RH  049%=      5-min Rain = 0
KCL1 241326Z 17005KT 20/09 A303 RMK A01 T02010091  RH  049%=      5-min Rain = 0
KCL1 241327Z 16005KT 20/09 A303 RMK A01 T02010089  RH  049%=      5-min Rain = 0
KCL1 241328Z 17003KT 20/09 A303 RMK A01 T02010090  RH  049%=      5-min Rain = 0
KCL1 241329Z 16005KT 20/09 A303 RMK A01 T02020091  RH  049%=      5-min Rain = 0
KCL1 241330Z 16004KT 20/09 A303 RMK A01 T02030090  RH  048%=      5-min Rain = 0
KCL1 241331Z 16004KT 20/09 A303 RMK A01 T02040090  RH  048%=      5-min Rain = 0
KCL1 241332Z 16006KT 20/09 A303 RMK A01 T02040090  RH  048%=      5-min Rain = 0
KCL1 241333Z 16006KT 20/09 A303 RMK A01 T02030089  RH  048%=      5-min Rain = 0
KCL1 241334Z 16006KT 20/09 A303 RMK A01 T02030089  RH  048%=      5-min Rain = 0
KCL1 241335Z 16006KT 20/09 A303 RMK A01 T02030090  RH  048%=      5-min Rain = 0
KCL1 241336Z 18005KT 20/09 A303 RMK A01 T02030089  RH  048%=      5-min Rain = 0
KCL1 241337Z 17006KT 20/09 A303 RMK A01 T02030090  RH  048%=      5-min Rain = 0
KCL1 241338Z 15006KT 20/09 A3031 RMK A01 T02030090  RH  048%=      5-min Rain = 0
KCL1 241339Z 17006KT 20/09 A3031 RMK A01 T02030089  RH  048%=      5-min Rain = 0
KCL1 241340Z 17006KT 20/09 A3031 RMK A01 T02020089  RH  048%=      5-min Rain = 0
KCL1 241341Z 17007KT 20/09 A3031 RMK A01 T02020089  RH  048%=      5-min Rain = 0
KCL1 241342Z 17005KT 20/09 A3031 RMK A01 T02010089  RH  048%=      5-min Rain = 0
KCL1 241343Z 17006KT 20/09 A3031 RMK A01 T02010090  RH  049%=      5-min Rain = 0
KCL1 241344Z 18005KT 20/09 A3031 RMK A01 T02010089  RH  048%=      5-min Rain = 0
KCL1 241345Z 17004KT 20/09 A3031 RMK A01 T02030090  RH  048%=      5-min Rain = 0
KCL1 241346Z 18006KT 20/09 A3031 RMK A01 T02040090  RH  048%=      5-min Rain = 0
KCL1 241347Z 17006KT 21/09 A3031 RMK A01 T02050090  RH  047%=      5-min Rain = 0
KCL1 241348Z 17006KT 21/09 A3031 RMK A01 T02060089  RH  047%=      5-min Rain = 0
KCL1 241349Z 18007KT 21/09 A3031 RMK A01 T02060089  RH  047%=      5-min Rain = 0
KCL1 241350Z 18006KT 21/09 A3031 RMK A01 T02060089  RH  047%=      5-min Rain = 0
KCL1 241351Z 17006KT 21/09 A3031 RMK A01 T02060089  RH  047%=      5-min Rain = 0
KCL1 241352Z 18005KT 21/09 A3031 RMK A01 T02060089  RH  047%=      5-min Rain = 0
KCL1 241353Z 18004KT 21/09 A3031 RMK A01 T02070089  RH  047%=      5-min Rain = 0
KCL1 241354Z 17005KT 21/09 A3031 RMK A01 T02080090  RH  047%=      5-min Rain = 0
KCL1 241355Z 17006KT 21/09 A3031 RMK A01 T02080090  RH  047%=      5-min Rain = 0
KCL1 241356Z 18006KT 21/09 A3031 RMK A01 T02090090  RH  047%=      5-min Rain = 0
KCL1 241357Z 19006KT 21/09 A3031 RMK A01 T02090089  RH  046%=      5-min Rain = 0
KCL1 241358Z 17005KT 21/09 A3031 RMK A01 T02090090  RH  047%=      5-min Rain = 0
KCL1 241359Z 18005KT 21/09 A3031 RMK A01 T02090090  RH  047%=      5-min Rain = 0
KCL1 241400Z 18005KT 21/09 A3031 RMK A01 T02100090  RH  046%=      5-min Rain = 0
KCL1 241401Z 17003KT 21/09 A3031 RMK A01 T02100091  RH  046%=      5-min Rain = 0
KCL1 241402Z 17003KT 21/09 A3031 RMK A01 T02110093  RH  047%=      5-min Rain = 0
KCL1 241403Z 18004KT 21/09 A3031 RMK A01 T02120093  RH  046%=      5-min Rain = 0
KCL1 241404Z 16003KT 22/09 A3031 RMK A01 T02150093  RH  046%=      5-min Rain = 0
KCL1 241405Z 18006KT 22/09 A3031 RMK A01 T02160094  RH  046%=      5-min Rain = 0
KCL1 241406Z 18005KT 22/09 A3031 RMK A01 T02180092  RH  045%=      5-min Rain = 0
KCL1 241407Z 19006KT 22/09 A3031 RMK A01 T02170092  RH  045%=      5-min Rain = 0
KCL1 241408Z 18005KT 22/09 A3031 RMK A01 T02160092  RH  045%=      5-min Rain = 0
KCL1 241409Z 17005KT 21/09 A3031 RMK A01 T02140092  RH  045%=      5-min Rain = 0
KCL1 241410Z 18006KT 21/09 A3031 RMK A01 T02140092  RH  046%=      5-min Rain = 0
KCL1 241411Z 19007KT 22/09 A3031 RMK A01 T02150092  RH  045%=      5-min Rain = 0
KCL1 241412Z 18005KT 22/09 A3031 RMK A01 T02150092  RH  045%=      5-min Rain = 0
KCL1 241413Z 19006KT 22/09 A3031 RMK A01 T02150093  RH  046%=      5-min Rain = 0
KCL1 241414Z 18006KT 22/09 A3031 RMK A01 T02160092  RH  045%=      5-min Rain = 0
KCL1 241415Z 18007KT 22/09 A3031 RMK A01 T02160092  RH  045%=      5-min Rain = 0
KCL1 241416Z 18005KT 22/09 A303 RMK A01 T02160092  RH  045%=      5-min Rain = 0
KCL1 241417Z 18006KT 22/09 A303 RMK A01 T02160092  RH  045%=      5-min Rain = 0
KCL1 241418Z 18005KT 22/09 A303 RMK A01 T02160093  RH  045%=      5-min Rain = 0
KCL1 241419Z 19006KT 22/09 A303 RMK A01 T02150092  RH  045%=      5-min Rain = 0
KCL1 241420Z 19007KT 22/09 A303 RMK A01 T02160092  RH  045%=      5-min Rain = 0
KCL1 241421Z 20005KT 22/09 A303 RMK A01 T02150092  RH  045%=      5-min Rain = 0
KCL1 241422Z 19005KT 22/09 A303 RMK A01 T02150093  RH  046%=      5-min Rain = 0
KCL1 241423Z 20007KT 22/09 A303 RMK A01 T02170092  RH  045%=      5-min Rain = 0
KCL1 241424Z 20007KT 22/09 A303 RMK A01 T02170092  RH  045%=      5-min Rain = 0
KCL1 241425Z 19007KT 22/09 A303 RMK A01 T02170093  RH  045%=      5-min Rain = 0
KCL1 241426Z 18007KT 22/09 A303 RMK A01 T02180093  RH  045%=      5-min Rain = 0
KCL1 241427Z 19008KT 22/09 A303 RMK A01 T02180093  RH  045%=      5-min Rain = 0
KCL1 241428Z 18007KT 22/09 A303 RMK A01 T02190093  RH  045%=      5-min Rain = 0
KCL1 241429Z 18006KT 22/10 A303 RMK A01 T02190095  RH  045%=      5-min Rain = 0
KCL1 241430Z 18007KT 22/09 A303 RMK A01 T02220094  RH  044%=      5-min Rain = 0
KCL1 241431Z 19007KT 22/10 A303 RMK A01 T02230095  RH  044%=      5-min Rain = 0
KCL1 241432Z 18006KT 22/09 A303 RMK A01 T02240094  RH  044%=      5-min Rain = 0
KCL1 241433Z 20006G11KT 22/09 A303 RMK A01 T02230094  RH  044%=      5-min Rain = 0
KCL1 241434Z 19008KT 22/09 A303 RMK A01 T02230094  RH  044%=      5-min Rain = 0
KCL1 241435Z 20008KT 22/09 A303 RMK A01 T02230094  RH  044%=      5-min Rain = 0
KCL1 241436Z 18006KT 22/10 A303 RMK A01 T02230095  RH  044%=      5-min Rain = 0
KCL1 241437Z 17007KT 23/10 A303 RMK A01 T02250096  RH  044%=      5-min Rain = 0
KCL1 241438Z 19006KT 23/09 A303 RMK A01 T02260094  RH  043%=      5-min Rain = 0
KCL1 241439Z 19006KT 23/09 A303 RMK A01 T02250094  RH  043%=      5-min Rain = 0
KCL1 241440Z 20006KT 22/09 A303 RMK A01 T02240094  RH  043%=      5-min Rain = 0
KCL1 241441Z 17007KT 22/09 A303 RMK A01 T02240094  RH  044%=      5-min Rain = 0
KCL1 241442Z 18007KT 23/10 A303 RMK A01 T02250095  RH  044%=      5-min Rain = 0
KCL1 241443Z 17007KT 23/10 A303 RMK A01 T02250095  RH  044%=      5-min Rain = 0
KCL1 241444Z 18007KT 23/10 A303 RMK A01 T02270097  RH  044%=      5-min Rain = 0
KCL1 241445Z 18006KT 23/10 A303 RMK A01 T02280096  RH  043%=      5-min Rain = 0
KCL1 241446Z 19006KT 23/10 A303 RMK A01 T02290096  RH  043%=      5-min Rain = 0
KCL1 241447Z 16008KT 23/10 A303 RMK A01 T02280096  RH  043%=      5-min Rain = 0
KCL1 241448Z 17006KT 23/10 A303 RMK A01 T02280096  RH  043%=      5-min Rain = 0
KCL1 241449Z 15008KT 23/10 A303 RMK A01 T02280096  RH  043%=      5-min Rain = 0
KCL1 241450Z 16009KT 23/10 A303 RMK A01 T02290096  RH  043%=      5-min Rain = 0
KCL1 241451Z 15008KT 23/10 A303 RMK A01 T02290096  RH  043%=      5-min Rain = 0
KCL1 241452Z 15008KT 23/10 A303 RMK A01 T02290096  RH  043%=      5-min Rain = 0
KCL1 241453Z 15009KT 23/10 A303 RMK A01 T02300095  RH  042%=      5-min Rain = 0
KCL1 241454Z 18008KT 23/10 A303 RMK A01 T02290096  RH  043%=      5-min Rain = 0
KCL1 241455Z 15006G11KT 23/10 A303 RMK A01 T02290095  RH  043%=      5-min Rain = 0
KCL1 241456Z 14005KT 23/10 A303 RMK A01 T02290097  RH  043%=      5-min Rain = 0
KCL1 241457Z 19007KT 23/10 A303 RMK A01 T02300097  RH  043%=      5-min Rain = 0
KCL1 241458Z 20006KT 23/10 A303 RMK A01 T02310095  RH  042%=      5-min Rain = 0
KCL1 241459Z 20005KT 23/10 A303 RMK A01 T02290095  RH  042%=      5-min Rain = 0
KCL1 241500Z 17006KT 23/10 A303 RMK A01 T02280096  RH  043%=      5-min Rain = 0
KCL1 241501Z 15007KT 23/10 A303 RMK A01 T02290097  RH  043%=      5-min Rain = 0
KCL1 241502Z 14006KT 23/10 A3029 RMK A01 T02320097  RH  042%=      5-min Rain = 0
KCL1 241503Z 17007KT 24/10 A3029 RMK A01 T02350099  RH  042%=      5-min Rain = 0
KCL1 241504Z 17006KT 24/10 A3029 RMK A01 T02390101  RH  041%=      5-min Rain = 0
KCL1 241505Z 19006KT 24/10 A3029 RMK A01 T02410100  RH  041%=      5-min Rain = 0
KCL1 241506Z 18007KT 24/10 A3029 RMK A01 T02400098  RH  040%=      5-min Rain = 0
KCL1 241507Z 18007KT 24/10 A3029 RMK A01 T02370098  RH  041%=      5-min Rain = 0
KCL1 241508Z 15007KT 24/10 A3029 RMK A01 T02360097  RH  042%=      5-min Rain = 0
KCL1 241509Z 14005KT 24/10 A3029 RMK A01 T02350098  RH  042%=      5-min Rain = 0
KCL1 241510Z 15007KT 24/10 A3029 RMK A01 T02380100  RH  042%=      5-min Rain = 0
KCL1 241511Z 15008KT 24/10 A3029 RMK A01 T02400099  RH  041%=      5-min Rain = 0
KCL1 241512Z 15008KT 24/10 A3029 RMK A01 T02410100  RH  041%=      5-min Rain = 0
KCL1 241513Z 15007KT 24/10 A3029 RMK A01 T02430100  RH  040%=      5-min Rain = 0
KCL1 241514Z 18004KT 24/10 A3029 RMK A01 T02430099  RH  040%=      5-min Rain = 0
KCL1 241515Z 19007KT 24/10 A3029 RMK A01 T02440099  RH  040%=      5-min Rain = 0
KCL1 241516Z 19008KT 24/10 A3029 RMK A01 T02420097  RH  040%=      5-min Rain = 0
KCL1 241517Z 20007KT 24/10 A3029 RMK A01 T02410097  RH  040%=      5-min Rain = 0
KCL1 241518Z 18006KT 24/10 A3029 RMK A01 T02410097  RH  040%=      5-min Rain = 0
KCL1 241519Z 19007KT 24/10 A3029 RMK A01 T02410097  RH  040%=      5-min Rain = 0
KCL1 241520Z 18009KT 24/10 A3029 RMK A01 T02430097  RH  039%=      5-min Rain = 0
KCL1 241521Z 21006KT 24/10 A3029 RMK A01 T02440097  RH  039%=      5-min Rain = 0
KCL1 241522Z 20006KT 25/10 A3029 RMK A01 T02450097  RH  039%=      5-min Rain = 0
KCL1 241523Z 19008KT 25/10 A3029 RMK A01 T02450097  RH  039%=      5-min Rain = 0
KCL1 241524Z 18008KT 25/10 A3028 RMK A01 T02460097  RH  039%=      5-min Rain = 0
KCL1 241525Z 17008KT 25/10 A3029 RMK A01 T02460096  RH  039%=      5-min Rain = 0
KCL1 241526Z 17006KT 25/10 A3028 RMK A01 T02450097  RH  039%=      5-min Rain = 0
KCL1 241527Z 17009KT 24/10 A3028 RMK A01 T02440097  RH  039%=      5-min Rain = 0
KCL1 241528Z 17008KT 24/10 A3028 RMK A01 T02420097  RH  040%=      5-min Rain = 0
KCL1 241529Z 16007KT 24/10 A3028 RMK A01 T02410096  RH  040%=      5-min Rain = 0
KCL1 241530Z 17005KT 24/10 A3028 RMK A01 T02410096  RH  040%=      5-min Rain = 0
KCL1 241531Z 16006KT 24/10 A3028 RMK A01 T02410097  RH  040%=      5-min Rain = 0
KCL1 241532Z 15008KT 24/10 A3028 RMK A01 T02430097  RH  040%=      5-min Rain = 0
KCL1 241533Z 15009KT 25/10 A3028 RMK A01 T02460097  RH  039%=      5-min Rain = 0
KCL1 241534Z 16007KT 25/10 A3028 RMK A01 T02460097  RH  039%=      5-min Rain = 0
KCL1 241535Z 17008KT 25/10 A3028 RMK A01 T02470098  RH  039%=      5-min Rain = 0
KCL1 241536Z 16005KT 25/10 A3028 RMK A01 T02480099  RH  039%=      5-min Rain = 0
KCL1 241537Z 16008KT 25/10 A3028 RMK A01 T02510101  RH  039%=      5-min Rain = 0
KCL1 241538Z 15007KT 25/10 A3028 RMK A01 T02530098  RH  038%=      5-min Rain = 0
KCL1 241539Z 18005KT 25/10 A3028 RMK A01 T02520098  RH  038%=      5-min Rain = 0
KCL1 241540Z 20004KT 25/10 A3028 RMK A01 T02500097  RH  038%=      5-min Rain = 0
KCL1 241541Z 17006KT 25/10 A3028 RMK A01 T02480098  RH  039%=      5-min Rain = 0
KCL1 241542Z 16008KT 25/10 A3028 RMK A01 T02490097  RH  038%=      5-min Rain = 0
KCL1 241543Z 15007KT 25/10 A3028 RMK A01 T02490097  RH  038%=      5-min Rain = 0
KCL1 241544Z 14010KT 25/10 A3028 RMK A01 T02520098  RH  038%=      5-min Rain = 0
KCL1 241545Z 15010KT 25/10 A3027 RMK A01 T02540097  RH  037%=      5-min Rain = 0
KCL1 241546Z 17009KT 26/10 A3028 RMK A01 T02550099  RH  037%=      5-min Rain = 0
KCL1 241547Z 16007KT 26/10 A3028 RMK A01 T02560099  RH  037%=      5-min Rain = 0
KCL1 241548Z 17006KT 26/10 A3028 RMK A01 T02570099  RH  037%=      5-min Rain = 0
KCL1 241549Z 15006KT 26/10 A3028 RMK A01 T02580099  RH  037%=      5-min Rain = 0
KCL1 241550Z 15008KT 26/10 A3028 RMK A01 T02590098  RH  036%=      5-min Rain = 0
KCL1 241551Z 16008KT 26/10 A3028 RMK A01 T02580097  RH  036%=      5-min Rain = 0
KCL1 241552Z 16007KT 26/10 A3028 RMK A01 T02570099  RH  037%=      5-min Rain = 0
KCL1 241553Z 17007KT 26/10 A3028 RMK A01 T02580098  RH  036%=      5-min Rain = 0
KCL1 241554Z 16010KT 26/10 A3028 RMK A01 T02600099  RH  036%=      5-min Rain = 0
KCL1 241555Z 16010KT 26/10 A3028 RMK A01 T02600095  RH  035%=      5-min Rain = 0
KCL1 241556Z 16006KT 26/10 A3028 RMK A01 T02570095  RH  036%=      5-min Rain = 0
KCL1 241557Z 17008KT 26/10 A3028 RMK A01 T02560096  RH  036%=      5-min Rain = 0
KCL1 241558Z 17008KT 26/10 A3028 RMK A01 T02570096  RH  036%=      5-min Rain = 0
KCL1 241559Z 16007KT 26/10 A3028 RMK A01 T02570098  RH  037%=      5-min Rain = 0
KCL1 241600Z 15008KT 26/10 A3028 RMK A01 T02580099  RH  037%=      5-min Rain = 0
KCL1 241601Z 14010KT 26/10 A3028 RMK A01 T02600099  RH  036%=      5-min Rain = 0
KCL1 241602Z 15008KT 26/10 A3028 RMK A01 T02610096  RH  035%=      5-min Rain = 0
KCL1 241603Z 16007KT 26/10 A3028 RMK A01 T02600098  RH  036%=      5-min Rain = 0
KCL1 241604Z 15007KT 26/10 A3027 RMK A01 T02600098  RH  036%=      5-min Rain = 0
KCL1 241605Z 14006KT 26/10 A3027 RMK A01 T02600097  RH  036%=      5-min Rain = 0
KCL1 241606Z 17007KT 26/10 A3027 RMK A01 T02610098  RH  036%=      5-min Rain = 0
KCL1 241607Z 14005KT 26/10 A3027 RMK A01 T02620097  RH  035%=      5-min Rain = 0
KCL1 241608Z 15006KT 26/10 A3027 RMK A01 T02630098  RH  035%=      5-min Rain = 0
KCL1 241609Z 18009KT 26/10 A3027 RMK A01 T02640098  RH  035%=      5-min Rain = 0
KCL1 241610Z 16005G10KT 26/10 A3027 RMK A01 T02640096  RH  035%=      5-min Rain = 0
KCL1 241611Z 14010KT 26/10 A3027 RMK A01 T02620097  RH  035%=      5-min Rain = 0
KCL1 241612Z 16007KT 26/10 A3027 RMK A01 T02620097  RH  035%=      5-min Rain = 0
KCL1 241613Z 15008KT 26/10 A3027 RMK A01 T02640098  RH  035%=      5-min Rain = 0
KCL1 241614Z 14008KT 27/10 A3027 RMK A01 T02650098  RH  035%=      5-min Rain = 0
KCL1 241615Z 16007KT 27/10 A3027 RMK A01 T02650096  RH  035%=      5-min Rain = 0
KCL1 241616Z 16006KT 26/10 A3027 RMK A01 T02640098  RH  035%=      5-min Rain = 0
KCL1 241617Z 13007KT 27/10 A3027 RMK A01 T02660098  RH  035%=      5-min Rain = 0
KCL1 241618Z 16008KT 27/10 A3027 RMK A01 T02680099  RH  035%=      5-min Rain = 0
KCL1 241619Z 18004KT 27/10 A3027 RMK A01 T02690098  RH  034%=      5-min Rain = 0
KCL1 241620Z 17005KT 27/10 A3027 RMK A01 T02680098  RH  034%=      5-min Rain = 0
KCL1 241621Z 20005KT 27/10 A3027 RMK A01 T02690101  RH  035%=      5-min Rain = 0
KCL1 241622Z 21004KT 27/10 A3027 RMK A01 T02740101  RH  034%=      5-min Rain = 0
KCL1 241623Z 22003KT 28/10 A3027 RMK A01 T02750102  RH  034%=      5-min Rain = 0
KCL1 241624Z 20004KT 28/10 A3027 RMK A01 T02760102  RH  033%=      5-min Rain = 0
KCL1 241625Z 18006G12KT 28/10 A3027 RMK A01 T02770102  RH  034%=      5-min Rain = 0
KCL1 241626Z 18011KT 28/10 A3027 RMK A01 T02770101  RH  033%=      5-min Rain = 0
KCL1 241627Z 17007KT 28/10 A3027 RMK A01 T02750098  RH  033%=      5-min Rain = 0
KCL1 241628Z 15006KT 27/10 A3027 RMK A01 T02710098  RH  034%=      5-min Rain = 0
KCL1 241629Z 15007KT 27/10 A3027 RMK A01 T02690098  RH  034%=      5-min Rain = 0
KCL1 241630Z 12006KT 27/10 A3027 RMK A01 T02700100  RH  034%=      5-min Rain = 0
KCL1 241631Z 12006KT 27/10 A3027 RMK A01 T02710098  RH  034%=      5-min Rain = 0
KCL1 241632Z 19010KT 27/10 A3027 RMK A01 T02730102  RH  034%=      5-min Rain = 0
KCL1 241633Z 19008KT 28/10 A3027 RMK A01 T02750100  RH  033%=      5-min Rain = 0
KCL1 241634Z 18009KT 27/10 A3027 RMK A01 T02730100  RH  034%=      5-min Rain = 0
KCL1 241635Z 18008KT 27/10 A3027 RMK A01 T02730099  RH  034%=      5-min Rain = 0
KCL1 241636Z 18006G11KT 27/10 A3027 RMK A01 T02700098  RH  034%=      5-min Rain = 0
KCL1 241637Z 17011KT 27/10 A3026 RMK A01 T02700101  RH  035%=      5-min Rain = 0
KCL1 241638Z 16009KT 27/10 A3026 RMK A01 T02720100  RH  034%=      5-min Rain = 0
KCL1 241639Z 14009KT 27/10 A3026 RMK A01 T02720101  RH  034%=      5-min Rain = 0
KCL1 241640Z 12006KT 27/10 A3026 RMK A01 T02740099  RH  033%=      5-min Rain = 0
KCL1 241641Z 15010KT 28/10 A3026 RMK A01 T02750101  RH  034%=      5-min Rain = 0
KCL1 241642Z 15010KT 28/10 A3026 RMK A01 T02750099  RH  033%=      5-min Rain = 0
KCL1 241643Z 15010KT 27/10 A3026 RMK A01 T02730100  RH  034%=      5-min Rain = 0
KCL1 241644Z 14008KT 27/10 A3026 RMK A01 T02720100  RH  034%=      5-min Rain = 0
KCL1 241645Z 15009KT 27/10 A3026 RMK A01 T02720099  RH  034%=      5-min Rain = 0
KCL1 241646Z 16010G15KT 27/10 A3026 RMK A01 T02720100  RH  034%=      5-min Rain = 0
KCL1 241647Z 15010KT 27/10 A3026 RMK A01 T02710100  RH  034%=      5-min Rain = 0
KCL1 241648Z 18009KT 27/10 A3026 RMK A01 T02720100  RH  034%=      5-min Rain = 0
KCL1 241649Z 18011KT 27/10 A3026 RMK A01 T02730100  RH  034%=      5-min Rain = 0
KCL1 241650Z 16011KT 27/10 A3026 RMK A01 T02740101  RH  034%=      5-min Rain = 0
KCL1 241651Z 17008KT 28/10 A3026 RMK A01 T02750101  RH  034%=      5-min Rain = 0
KCL1 241652Z 15008KT 28/10 A3026 RMK A01 T02750102  RH  034%=      5-min Rain = 0
KCL1 241653Z 14011KT 28/10 A3026 RMK A01 T02770102  RH  033%=      5-min Rain = 0
KCL1 241654Z 13010KT 28/10 A3026 RMK A01 T02780101  RH  033%=      5-min Rain = 0
KCL1 241655Z 14006KT 28/10 A3026 RMK A01 T02770100  RH  033%=      5-min Rain = 0
KCL1 241656Z 14007KT 28/10 A3026 RMK A01 T02750101  RH  034%=      5-min Rain = 0
KCL1 241657Z 14008KT 28/10 A3026 RMK A01 T02760102  RH  034%=      5-min Rain = 0
KCL1 241658Z 15011KT 28/10 A3025 RMK A01 T02780102  RH  033%=      5-min Rain = 0
KCL1 241659Z 14011KT 28/10 A3025 RMK A01 T02790102  RH  033%=      5-min Rain = 0
KCL1 241700Z 19010KT 28/11 A3025 RMK A01 T02810105  RH  033%=      5-min Rain = 0
KCL1 241701Z 19010KT 28/10 A3025 RMK A01 T02840103  RH  032%=      5-min Rain = 0
KCL1 241702Z 21009KT 28/10 A3025 RMK A01 T02820103  RH  033%=      5-min Rain = 0
KCL1 241703Z 20006KT 28/10 A3025 RMK A01 T02780100  RH  033%=      5-min Rain = 0
KCL1 241704Z 20005KT 28/10 A3025 RMK A01 T02760102  RH  034%=      5-min Rain = 0
KCL1 241705Z 20004KT 28/10 A3025 RMK A01 T02780102  RH  033%=      5-min Rain = 0
KCL1 241706Z 20005KT 28/10 A3025 RMK A01 T02790103  RH  033%=      5-min Rain = 0
KCL1 241707Z 19005KT 28/10 A3025 RMK A01 T02800103  RH  033%=      5-min Rain = 0
KCL1 241708Z 18007KT 28/10 A3025 RMK A01 T02800102  RH  033%=      5-min Rain = 0
KCL1 241709Z 20008KT 28/10 A3025 RMK A01 T02800102  RH  033%=      5-min Rain = 0
KCL1 241710Z 19006KT 28/10 A3025 RMK A01 T02780101  RH  033%=      5-min Rain = 0
KCL1 241711Z 16009KT 28/10 A3025 RMK A01 T02770102  RH  034%=      5-min Rain = 0
KCL1 241712Z 14012KT 28/10 A3025 RMK A01 T02770101  RH  033%=      5-min Rain = 0
KCL1 241713Z 15008KT 28/10 A3025 RMK A01 T02770102  RH  033%=      5-min Rain = 0
KCL1 241714Z 15009KT 28/10 A3025 RMK A01 T02780103  RH  033%=      5-min Rain = 0
KCL1 241715Z 14009KT 28/10 A3025 RMK A01 T02810103  RH  033%=      5-min Rain = 0
KCL1 241716Z 16012KT 28/11 A3025 RMK A01 T02840105  RH  033%=      5-min Rain = 0
KCL1 241717Z 14007KT 28/10 A3025 RMK A01 T02840103  RH  032%=      5-min Rain = 0
KCL1 241718Z 14009KT 28/10 A3025 RMK A01 T02820102  RH  033%=      5-min Rain = 0
KCL1 241719Z 14011KT 28/10 A3024 RMK A01 T02810103  RH  033%=      5-min Rain = 0
KCL1 241720Z 14012KT 28/10 A3025 RMK A01 T02810102  RH  033%=      5-min Rain = 0
KCL1 241721Z 14006KT 28/10 A3025 RMK A01 T02800101  RH  033%=      5-min Rain = 0
KCL1 241722Z 16007KT 28/10 A3025 RMK A01 T02770101  RH  033%=      5-min Rain = 0
KCL1 241723Z 15007KT 28/10 A3024 RMK A01 T02780102  RH  033%=      5-min Rain = 0
KCL1 241724Z 15008KT 28/10 A3024 RMK A01 T02780101  RH  033%=      5-min Rain = 0
KCL1 241725Z 12005KT 28/10 A3024 RMK A01 T02760102  RH  034%=      5-min Rain = 0
KCL1 241726Z 15004G9KT 28/10 A3024 RMK A01 T02770103  RH  034%=      5-min Rain = 0
KCL1 241727Z 17011KT 28/10 A3024 RMK A01 T02810104  RH  033%=      5-min Rain = 0
KCL1 241728Z 18011KT 28/10 A3024 RMK A01 T02820102  RH  033%=      5-min Rain = 0
KCL1 241729Z 16008KT 28/10 A3024 RMK A01 T02810103  RH  033%=      5-min Rain = 0
KCL1 241730Z 14008KT 28/10 A3024 RMK A01 T02810103  RH  033%=      5-min Rain = 0
KCL1 241731Z 14006KT 28/10 A3024 RMK A01 T02820102  RH  032%=      5-min Rain = 0
KCL1 241732Z 14005KT 28/10 A3024 RMK A01 T02820103  RH  033%=      5-min Rain = 0
KCL1 241733Z 15008KT 28/10 A3024 RMK A01 T02820103  RH  033%=      5-min Rain = 0
KCL1 241734Z 15012KT 28/10 A3024 RMK A01 T02840104  RH  032%=      5-min Rain = 0
KCL1 241735Z 15014KT 29/10 A3024 RMK A01 T02850104  RH  032%=      5-min Rain = 0
KCL1 241736Z 16012KT 29/10 A3024 RMK A01 T02850103  RH  032%=      5-min Rain = 0
KCL1 241737Z 16007G12KT 28/10 A3024 RMK A01 T02830103  RH  032%=      5-min Rain = 0
KCL1 241738Z 15007KT 28/10 A3024 RMK A01 T02820104  RH  033%=      5-min Rain = 0
KCL1 241739Z 15006G11KT 28/10 A3024 RMK A01 T02840103  RH  032%=      5-min Rain = 0
KCL1 241740Z 14011KT 28/10 A3024 RMK A01 T02840104  RH  033%=      5-min Rain = 0
KCL1 241741Z 15010KT 29/10 A3024 RMK A01 T02850104  RH  032%=      5-min Rain = 0
KCL1 241742Z 17011KT 29/11 A3024 RMK A01 T02870107  RH  032%=      5-min Rain = 0
KCL1 241743Z 15006G11KT 29/10 A3024 RMK A01 T02880104  RH  032%=      5-min Rain = 0
KCL1 241744Z 16010KT 29/11 A3024 RMK A01 T02880106  RH  032%=      5-min Rain = 0
KCL1 241745Z 17009KT 29/11 A3024 RMK A01 T02890105  RH  032%=      5-min Rain = 0
KCL1 241746Z 15009KT 29/11 A3024 RMK A01 T02880106  RH  032%=      5-min Rain = 0
KCL1 241747Z 14008KT 29/10 A3024 RMK A01 T02890104  RH  032%=      5-min Rain = 0
KCL1 241748Z 15004KT 29/11 A3024 RMK A01 T02870105  RH  032%=      5-min Rain = 0
KCL1 241749Z 15005KT 29/11 A3024 RMK A01 T02880106  RH  032%=      5-min Rain = 0
KCL1 241750Z 16004KT 29/10 A3023 RMK A01 T02880104  RH  032%=      5-min Rain = 0
KCL1 241751Z 15004KT 29/11 A3023 RMK A01 T02870105  RH  032%=      5-min Rain = 0
KCL1 241752Z 18007KT 29/11 A3023 RMK A01 T02870105  RH  032%=      5-min Rain = 0
KCL1 241753Z 14008KT 29/10 A3023 RMK A01 T02870104  RH  032%=      5-min Rain = 0
KCL1 241754Z 16006KT 29/10 A3023 RMK A01 T02870104  RH  032%=      5-min Rain = 0
KCL1 241755Z 13003KT 29/10 A3023 RMK A01 T02870104  RH  032%=      5-min Rain = 0
KCL1 241756Z 16008KT 29/11 A3023 RMK A01 T02870106  RH  032%=      5-min Rain = 0
KCL1 241757Z 15008KT 29/11 A3023 RMK A01 T02900105  RH  032%=      5-min Rain = 0
KCL1 241758Z 14008G13KT 29/11 A3023 RMK A01 T02900105  RH  032%=      5-min Rain = 0
KCL1 241759Z 11007KT 29/11 A3023 RMK A01 T02880105  RH  032%=      5-min Rain = 0
KCL1 241800Z 12008KT 29/11 A3023 RMK A01 T02880107  RH  032%=      5-min Rain = 0
KCL1 241801Z 14009KT 29/11 A3023 RMK A01 T02930108  RH  032%=      5-min Rain = 0
KCL1 241802Z 16010KT 30/11 A3023 RMK A01 T02960108  RH  031%=      5-min Rain = 0
KCL1 241803Z 15008G14KT 30/11 A3023 RMK A01 T02960107  RH  031%=      5-min Rain = 0
KCL1 241804Z 15011KT 30/11 A3023 RMK A01 T02950105  RH  031%=      5-min Rain = 0
KCL1 241805Z 16009KT 29/11 A3023 RMK A01 T02920106  RH  032%=      5-min Rain = 0
KCL1 241806Z 14008KT 29/11 A3023 RMK A01 T02920107  RH  032%=      5-min Rain = 0
KCL1 241807Z 13008KT 29/11 A3023 RMK A01 T02920106  RH  032%=      5-min Rain = 0
KCL1 241808Z 15007KT 29/11 A3023 RMK A01 T02930107  RH  031%=      5-min Rain = 0
KCL1 241809Z 17008KT 29/11 A3023 RMK A01 T02940106  RH  031%=      5-min Rain = 0
KCL1 241810Z 17006KT 29/11 A3023 RMK A01 T02930108  RH  032%=      5-min Rain = 0
KCL1 241811Z 17004G9KT 29/11 A3023 RMK A01 T02930105  RH  031%=      5-min Rain = 0
KCL1 241812Z 14004KT 29/11 A3023 RMK A01 T02930106  RH  031%=      5-min Rain = 0
KCL1 241813Z 13004KT 29/11 A3023 RMK A01 T02930107  RH  031%=      5-min Rain = 0
KCL1 241814Z 11008KT 30/11 A3023 RMK A01 T02950107  RH  031%=      5-min Rain = 0
KCL1 241815Z 13012KT 30/11 A3023 RMK A01 T02960107  RH  031%=      5-min Rain = 0
KCL1 241816Z 16010KT 30/11 A3023 RMK A01 T02950108  RH  031%=      5-min Rain = 0
KCL1 241817Z 15008KT 30/11 A3022 RMK A01 T02960107  RH  031%=      5-min Rain = 0
KCL1 241818Z 18012G20KT 30/11 A3023 RMK A01 T02980110  RH  031%=      5-min Rain = 0
KCL1 241819Z 20008KT 30/11 A3023 RMK A01 T03010108  RH  030%=      5-min Rain = 0
KCL1 241820Z 21008KT 30/11 A3023 RMK A01 T02990108  RH  031%=      5-min Rain = 0
KCL1 241821Z 21009KT 30/11 A3023 RMK A01 T02950106  RH  031%=      5-min Rain = 0
KCL1 241822Z 24011KT 29/11 A3022 RMK A01 T02930107  RH  032%=      5-min Rain = 0
KCL1 241823Z 22011KT 29/11 A3022 RMK A01 T02930107  RH  032%=      5-min Rain = 0
KCL1 241824Z 19009KT 29/11 A3023 RMK A01 T02940107  RH  031%=      5-min Rain = 0
KCL1 241825Z 19010KT 29/11 A3023 RMK A01 T02940107  RH  031%=      5-min Rain = 0
KCL1 241826Z 20006KT 29/11 A3023 RMK A01 T02940107  RH  031%=      5-min Rain = 0
KCL1 241827Z 16010KT 29/11 A3023 RMK A01 T02930109  RH  032%=      5-min Rain = 0
KCL1 241828Z 13010KT 29/11 A3022 RMK A01 T02930107  RH  032%=      5-min Rain = 0
KCL1 241829Z 14009KT 30/11 A3022 RMK A01 T02950108  RH  031%=      5-min Rain = 0
KCL1 241830Z 15006KT 30/11 A3022 RMK A01 T02970108  RH  031%=      5-min Rain = 0
KCL1 241831Z 15011KT 30/11 A3022 RMK A01 T02970110  RH  031%=      5-min Rain = 0
KCL1 241832Z 14013KT 30/11 A3022 RMK A01 T03000110  RH  031%=      5-min Rain = 0
KCL1 241833Z 14012KT 30/11 A3022 RMK A01 T03000108  RH  030%=      5-min Rain = 0
KCL1 241834Z 16009KT 30/11 A3022 RMK A01 T02980109  RH  031%=      5-min Rain = 0
KCL1 241835Z 15008KT 30/11 A3022 RMK A01 T02990110  RH  031%=      5-min Rain = 0
KCL1 241836Z 16005KT 30/11 A3022 RMK A01 T02980107  RH  031%=      5-min Rain = 0
KCL1 241837Z 15009KT 30/11 A3022 RMK A01 T02950108  RH  031%=      5-min Rain = 0
KCL1 241838Z 13008KT 30/11 A3022 RMK A01 T02950109  RH  032%=      5-min Rain = 0
KCL1 241839Z 13009KT 30/11 A3022 RMK A01 T02970110  RH  031%=      5-min Rain = 0
KCL1 241840Z 14011KT 30/11 A3022 RMK A01 T03000109  RH  031%=      5-min Rain = 0
KCL1 241841Z 12009KT 30/11 A3022 RMK A01 T02990109  RH  031%=      5-min Rain = 0
KCL1 241842Z 11011KT 30/11 A3022 RMK A01 T02990110  RH  031%=      5-min Rain = 0
KCL1 241843Z 11006KT 30/11 A3022 RMK A01 T03010109  RH  030%=      5-min Rain = 0
KCL1 241844Z 14005KT 30/11 A3022 RMK A01 T03000109  RH  031%=      5-min Rain = 0
KCL1 241845Z 12006KT 30/11 A3022 RMK A01 T02990110  RH  031%=      5-min Rain = 0
KCL1 241846Z 14005KT 30/11 A3022 RMK A01 T03010110  RH  031%=      5-min Rain = 0
KCL1 241847Z 19009G15KT 30/11 A3022 RMK A01 T03030110  RH  030%=      5-min Rain = 0
KCL1 241848Z 19010KT 30/11 A3022 RMK A01 T03040109  RH  030%=      5-min Rain = 0
KCL1 241849Z 17008G13KT 30/11 A3021 RMK A01 T03010109  RH  030%=      5-min Rain = 0
KCL1 241850Z 14013KT 30/11 A3021 RMK A01 T02990110  RH  031%=      5-min Rain = 0
KCL1 241851Z 15010G16KT 30/11 A3022 RMK A01 T03010109  RH  030%=      5-min Rain = 0
KCL1 241852Z 16005KT 30/11 A3021 RMK A01 T03010108  RH  030%=      5-min Rain = 0
KCL1 241853Z 12008KT 30/11 A3021 RMK A01 T03010111  RH  031%=      5-min Rain = 0
KCL1 241854Z 12004KT 30/11 A3021 RMK A01 T03030108  RH  030%=      5-min Rain = 0
KCL1 241855Z 12008KT 30/11 A3021 RMK A01 T03020109  RH  030%=      5-min Rain = 0
KCL1 241856Z 12010KT 30/11 A3021 RMK A01 T03010109  RH  030%=      5-min Rain = 0
KCL1 241857Z 12008KT 30/11 A3021 RMK A01 T03020109  RH  030%=      5-min Rain = 0
KCL1 241858Z 10006KT 30/11 A3021 RMK A01 T03030109  RH  030%=      5-min Rain = 0
KCL1 241859Z 12006KT 30/11 A3021 RMK A01 T03030109  RH  030%=      5-min Rain = 0
KCL1 241900Z 14008G13KT 30/11 A3021 RMK A01 T03030112  RH  031%=      5-min Rain = 0
KCL1 241901Z 16014KT 31/11 A3021 RMK A01 T03070111  RH  030%=      5-min Rain = 0
KCL1 241902Z 20007KT 31/11 A3021 RMK A01 T03070110  RH  030%=      5-min Rain = 0
KCL1 241903Z 18004KT 31/11 A3021 RMK A01 T03050110  RH  030%=      5-min Rain = 0
KCL1 241904Z 15008KT 31/11 A3021 RMK A01 T03050112  RH  030%=      5-min Rain = 0
KCL1 241905Z 12009KT 31/11 A3021 RMK A01 T03080111  RH  030%=      5-min Rain = 0
KCL1 241906Z 14005G10KT 31/11 A3021 RMK A01 T03090110  RH  029%=      5-min Rain = 0
KCL1 241907Z 16010KT 31/11 A3021 RMK A01 T03070111  RH  030%=      5-min Rain = 0
KCL1 241908Z 17011KT 31/11 A3021 RMK A01 T03080111  RH  030%=      5-min Rain = 0
KCL1 241909Z 17010KT 31/11 A3021 RMK A01 T03070110  RH  030%=      5-min Rain = 0
KCL1 241910Z 14009KT 31/11 A3021 RMK A01 T03050111  RH  030%=      5-min Rain = 0
KCL1 241911Z 11007KT 31/11 A3021 RMK A01 T03060110  RH  030%=      5-min Rain = 0
KCL1 241912Z 09006KT 31/11 A3021 RMK A01 T03060110  RH  030%=      5-min Rain = 0
KCL1 241913Z 10007KT 31/11 A302 RMK A01 T03060111  RH  030%=      5-min Rain = 0
KCL1 241914Z 13008KT 31/11 A302 RMK A01 T03060110  RH  030%=      5-min Rain = 0
KCL1 241915Z 12005KT 31/11 A302 RMK A01 T03060110  RH  030%=      5-min Rain = 0
KCL1 241916Z 17012KT 31/11 A302 RMK A01 T03070112  RH  030%=      5-min Rain = 0
KCL1 241917Z 21010KT 31/11 A302 RMK A01 T03090110  RH  029%=      5-min Rain = 0
KCL1 241918Z 18011G16KT 31/11 A302 RMK A01 T03070109  RH  030%=      5-min Rain = 0
KCL1 241919Z 18013KT 31/11 A302 RMK A01 T03050109  RH  030%=      5-min Rain = 0
KCL1 241920Z 16010KT 30/11 A302 RMK A01 T03020109  RH  030%=      5-min Rain = 0
KCL1 241921Z 19010KT 30/11 A302 RMK A01 T03020110  RH  031%=      5-min Rain = 0
KCL1 241922Z 16006KT 30/11 A302 RMK A01 T03020109  RH  030%=      5-min Rain = 0
KCL1 241923Z 13007KT 30/11 A302 RMK A01 T03030110  RH  030%=      5-min Rain = 0
KCL1 241924Z 12004KT 31/11 A302 RMK A01 T03060110  RH  030%=      5-min Rain = 0
KCL1 241925Z 16002KT 31/11 A302 RMK A01 T03070110  RH  030%=      5-min Rain = 0
KCL1 241926Z 17009G14KT 31/11 A302 RMK A01 T03070110  RH  030%=      5-min Rain = 0
KCL1 241927Z 17011KT 31/11 A302 RMK A01 T03100113  RH  030%=      5-min Rain = 0
KCL1 241928Z 15010KT 31/11 A302 RMK A01 T03140113  RH  029%=      5-min Rain = 0
KCL1 241929Z 15011KT 32/11 A302 RMK A01 T03150112  RH  029%=      5-min Rain = 0
KCL1 241930Z 16010KT 31/11 A302 RMK A01 T03130111  RH  029%=      5-min Rain = 0
KCL1 241931Z 17009KT 31/11 A302 RMK A01 T03090110  RH  029%=      5-min Rain = 0
KCL1 241932Z 15010KT 31/11 A302 RMK A01 T03060110  RH  030%=      5-min Rain = 0
KCL1 241933Z 15008KT 31/11 A302 RMK A01 T03060112  RH  030%=      5-min Rain = 0
KCL1 241934Z 14009KT 31/11 A302 RMK A01 T03080109  RH  029%=      5-min Rain = 0
KCL1 241935Z 13004KT 31/11 A302 RMK A01 T03060108  RH  029%=      5-min Rain = 0
KCL1 241936Z 11007KT 31/11 A302 RMK A01 T03050109  RH  030%=      5-min Rain = 0
KCL1 241937Z 14012KT 31/11 A3019 RMK A01 T03070109  RH  030%=      5-min Rain = 0
KCL1 241938Z 14010KT 31/11 A3019 RMK A01 T03080108  RH  029%=      5-min Rain = 0
KCL1 241939Z 16008KT 31/11 A3019 RMK A01 T03080111  RH  030%=      5-min Rain = 0
KCL1 241940Z 18008KT 31/11 A3019 RMK A01 T03090109  RH  029%=      5-min Rain = 0
KCL1 241941Z 15010KT 31/11 A3019 RMK A01 T03070110  RH  030%=      5-min Rain = 0
KCL1 241942Z 14010KT 31/11 A3019 RMK A01 T03090110  RH  029%=      5-min Rain = 0
KCL1 241943Z 13005KT 31/11 A3019 RMK A01 T03100109  RH  029%=      5-min Rain = 0
KCL1 241944Z 13007G14KT 31/11 A3019 RMK A01 T03100110  RH  029%=      5-min Rain = 0
KCL1 241945Z 11010KT 31/11 A3019 RMK A01 T03120111  RH  029%=      5-min Rain = 0
KCL1 241946Z 08007KT 31/11 A3019 RMK A01 T03120108  RH  028%=      5-min Rain = 0
KCL1 241947Z 11005G10KT 31/11 A3019 RMK A01 T03090108  RH  029%=      5-min Rain = 0
KCL1 241948Z 08005KT 31/11 A3019 RMK A01 T03080110  RH  029%=      5-min Rain = 0
KCL1 241949Z 14005KT 31/11 A3019 RMK A01 T03110112  RH  029%=      5-min Rain = 0
KCL1 241950Z 15008KT 31/11 A3019 RMK A01 T03140111  RH  029%=      5-min Rain = 0
KCL1 241951Z 14005KT 31/11 A3019 RMK A01 T03140108  RH  028%=      5-min Rain = 0
KCL1 241952Z 11005KT 31/11 A3019 RMK A01 T03120109  RH  029%=      5-min Rain = 0
KCL1 241953Z 20007KT 31/11 A3019 RMK A01 T03100110  RH  029%=      5-min Rain = 0
KCL1 241954Z 22009KT 31/11 A3019 RMK A01 T03110109  RH  029%=      5-min Rain = 0
KCL1 241955Z 23007KT 31/11 A3019 RMK A01 T03110107  RH  029%=      5-min Rain = 0
KCL1 241956Z 22006KT 31/11 A3019 RMK A01 T03100108  RH  029%=      5-min Rain = 0
KCL1 241957Z 17005KT 31/11 A3019 RMK A01 T03100110  RH  029%=      5-min Rain = 0
KCL1 241958Z 14005G10KT 31/11 A3019 RMK A01 T03120110  RH  029%=      5-min Rain = 0
KCL1 241959Z 20006KT 31/11 A3019 RMK A01 T03130109  RH  028%=      5-min Rain = 0
KCL1 242000Z 18009KT 31/11 A3019 RMK A01 T03100108  RH  029%=      5-min Rain = 0
KCL1 242001Z 17009KT 31/11 A3019 RMK A01 T03100109  RH  029%=      5-min Rain = 0
KCL1 242002Z 17005KT 31/11 A3019 RMK A01 T03110107  RH  028%=      5-min Rain = 0
KCL1 242003Z 20007KT 31/11 A3019 RMK A01 T03100108  RH  029%=      5-min Rain = 0
KCL1 242004Z 18006G11KT 31/11 A3019 RMK A01 T03100106  RH  028%=      5-min Rain = 0
KCL1 242005Z 23006KT 31/11 A3018 RMK A01 T03070105  RH  029%=      5-min Rain = 0
KCL1 242006Z 12003KT 31/11 A3018 RMK A01 T03060108  RH  029%=      5-min Rain = 0
KCL1 242007Z 17008KT 31/11 A3018 RMK A01 T03110109  RH  029%=      5-min Rain = 0
KCL1 242008Z 17010KT 32/11 A3018 RMK A01 T03160108  RH  028%=      5-min Rain = 0
KCL1 242009Z 16008KT 32/11 A3018 RMK A01 T03160107  RH  028%=      5-min Rain = 0
KCL1 242010Z 11006G16KT 31/11 A3018 RMK A01 T03130109  RH  028%=      5-min Rain = 0
KCL1 242011Z 14013G18KT 31/11 A3018 RMK A01 T03140109  RH  028%=      5-min Rain = 0
KCL1 242012Z 14011KT 32/11 A3018 RMK A01 T03150109  RH  028%=      5-min Rain = 0
KCL1 242013Z 12011KT 32/11 A3018 RMK A01 T03160109  RH  028%=      5-min Rain = 0
KCL1 242014Z 16009KT 32/11 A3018 RMK A01 T03180109  RH  028%=      5-min Rain = 0
KCL1 242015Z 18007KT 32/11 A3018 RMK A01 T03160108  RH  028%=      5-min Rain = 0
KCL1 242016Z 17006KT 31/11 A3018 RMK A01 T03130106  RH  028%=      5-min Rain = 0
KCL1 242017Z 16002KT 31/11 A3018 RMK A01 T03090106  RH  029%=      5-min Rain = 0
KCL1 242018Z 22002KT 31/11 A3018 RMK A01 T03090105  RH  028%=      5-min Rain = 0
KCL1 242019Z 20000KT 31/11 A3018 RMK A01 T03090106  RH  029%=      5-min Rain = 0
KCL1 242020Z 14003KT 31/11 A3018 RMK A01 T03090105  RH  028%=      5-min Rain = 0
KCL1 242021Z 15009KT 31/11 A3018 RMK A01 T03110105  RH  028%=      5-min Rain = 0
KCL1 242022Z 13007KT 31/10 A3018 RMK A01 T03130103  RH  027%=      5-min Rain = 0
KCL1 242023Z 09006KT 31/10 A3018 RMK A01 T03130102  RH  027%=      5-min Rain = 0
KCL1 242024Z 06004KT 31/10 A3018 RMK A01 T03110103  RH  028%=      5-min Rain = 0
KCL1 242025Z 15007KT 31/10 A3018 RMK A01 T03110102  RH  027%=      5-min Rain = 0
KCL1 242026Z 16006KT 31/10 A3018 RMK A01 T03110101  RH  027%=      5-min Rain = 0
KCL1 242027Z 11001KT 31/10 A3018 RMK A01 T03120100  RH  027%=      5-min Rain = 0
KCL1 242028Z 15004KT 31/10 A3018 RMK A01 T03110100  RH  027%=      5-min Rain = 0
KCL1 242029Z 18008KT 31/10 A3018 RMK A01 T03120104  RH  028%=      5-min Rain = 0
KCL1 242030Z 15011KT 32/11 A3017 RMK A01 T03160108  RH  028%=      5-min Rain = 0
KCL1 242031Z 15011KT 32/11 A3017 RMK A01 T03220108  RH  027%=      5-min Rain = 0
KCL1 242032Z 15011KT 32/11 A3017 RMK A01 T03220107  RH  027%=      5-min Rain = 0
KCL1 242033Z 17007KT 32/11 A3017 RMK A01 T03210105  RH  026%=      5-min Rain = 0
KCL1 242034Z 14010KT 32/10 A3017 RMK A01 T03190104  RH  027%=      5-min Rain = 0
KCL1 242035Z 16011KT 32/11 A3017 RMK A01 T03180105  RH  027%=      5-min Rain = 0
KCL1 242036Z 17007KT 32/11 A3017 RMK A01 T03160105  RH  027%=      5-min Rain = 0
KCL1 242037Z 19005KT 31/11 A3017 RMK A01 T03130106  RH  028%=      5-min Rain = 0
KCL1 242038Z 16007KT 31/11 A3017 RMK A01 T03130106  RH  028%=      5-min Rain = 0
KCL1 242039Z 18009KT 31/11 A3017 RMK A01 T03140105  RH  028%=      5-min Rain = 0
KCL1 242040Z 17008KT 32/11 A3017 RMK A01 T03160107  RH  028%=      5-min Rain = 0
KCL1 242041Z 17006KT 32/10 A3017 RMK A01 T03160104  RH  027%=      5-min Rain = 0
KCL1 242042Z 18005KT 31/10 A3017 RMK A01 T03130104  RH  028%=      5-min Rain = 0
KCL1 242043Z 20004KT 31/11 A3017 RMK A01 T03120105  RH  028%=      5-min Rain = 0
KCL1 242044Z 23004KT 31/10 A3017 RMK A01 T03120104  RH  028%=      5-min Rain = 0
KCL1 242045Z 25004KT 31/10 A3017 RMK A01 T03120103  RH  028%=      5-min Rain = 0
KCL1 242046Z 25003KT 31/10 A3017 RMK A01 T03120102  RH  027%=      5-min Rain = 0
KCL1 242047Z 16002KT 31/10 A3017 RMK A01 T03120104  RH  028%=      5-min Rain = 0
KCL1 242048Z 13006KT 31/11 A3017 RMK A01 T03120107  RH  028%=      5-min Rain = 0
KCL1 242049Z 16006KT 31/11 A3017 RMK A01 T03140108  RH  028%=      5-min Rain = 0
KCL1 242050Z 18005KT 32/11 A3017 RMK A01 T03150107  RH  028%=      5-min Rain = 0
KCL1 242051Z 17006KT 32/11 A3017 RMK A01 T03180113  RH  028%=      5-min Rain = 0
KCL1 242052Z 20006KT 33/11 A3017 RMK A01 T03260112  RH  027%=      5-min Rain = 0
KCL1 242053Z 15005KT 32/11 A3017 RMK A01 T03240108  RH  027%=      5-min Rain = 0
KCL1 242054Z 11005KT 32/11 A3017 RMK A01 T03200109  RH  027%=      5-min Rain = 0
KCL1 242055Z 15005KT 32/11 A3016 RMK A01 T03200108  RH  027%=      5-min Rain = 0
KCL1 242056Z 16005KT 32/11 A3016 RMK A01 T03200109  RH  027%=      5-min Rain = 0
KCL1 242057Z 19006KT 32/11 A3016 RMK A01 T03210108  RH  027%=      5-min Rain = 0
KCL1 242058Z 17007KT 32/11 A3016 RMK A01 T03190109  RH  027%=      5-min Rain = 0
KCL1 242059Z 20007KT 32/11 A3016 RMK A01 T03190109  RH  028%=      5-min Rain = 0
KCL1 242100Z 21008KT 32/11 A3016 RMK A01 T03190106  RH  027%=      5-min Rain = 0
KCL1 242101Z 21004KT 32/11 A3016 RMK A01 T03160106  RH  028%=      5-min Rain = 0
KCL1 242102Z 18008KT 32/11 A3016 RMK A01 T03150107  RH  028%=      5-min Rain = 0
KCL1 242103Z 18009KT 32/10 A3016 RMK A01 T03170102  RH  027%=      5-min Rain = 0
KCL1 242104Z 18008KT 32/10 A3016 RMK A01 T03170101  RH  026%=      5-min Rain = 0
KCL1 242105Z 17007KT 32/10 A3016 RMK A01 T03150099  RH  026%=      5-min Rain = 0
KCL1 242106Z 17010KT 31/10 A3016 RMK A01 T03140099  RH  027%=      5-min Rain = 0
KCL1 242107Z 16008KT 32/10 A3016 RMK A01 T03160099  RH  026%=      5-min Rain = 0
KCL1 242108Z 14008KT 32/10 A3016 RMK A01 T03180101  RH  026%=      5-min Rain = 0
KCL1 242109Z 16011KT 32/10 A3016 RMK A01 T03210102  RH  026%=      5-min Rain = 0
KCL1 242110Z 20007KT 32/10 A3016 RMK A01 T03210100  RH  026%=      5-min Rain = 0
KCL1 242111Z 24004KT 32/10 A3016 RMK A01 T03180099  RH  026%=      5-min Rain = 0
KCL1 242112Z 20006KT 32/10 A3016 RMK A01 T03180098  RH  026%=      5-min Rain = 0
KCL1 242113Z 16005KT 32/10 A3016 RMK A01 T03190098  RH  026%=      5-min Rain = 0
KCL1 242114Z 33004KT 32/10 A3016 RMK A01 T03190098  RH  026%=      5-min Rain = 0
KCL1 242115Z 35010KT 32/10 A3015 RMK A01 T03190101  RH  026%=      5-min Rain = 0
KCL1 242116Z 33010KT 32/10 A3015 RMK A01 T03210103  RH  026%=      5-min Rain = 0
KCL1 242117Z 22010KT 32/10 A3015 RMK A01 T03240101  RH  025%=      5-min Rain = 0
KCL1 242118Z 15006KT 32/10 A3015 RMK A01 T03230100  RH  025%=      5-min Rain = 0
KCL1 242119Z 12009KT 32/10 A3015 RMK A01 T03220100  RH  026%=      5-min Rain = 0
KCL1 242120Z 10008KT 32/10 A3015 RMK A01 T03190100  RH  026%=      5-min Rain = 0
KCL1 242121Z 13011KT 32/10 A3015 RMK A01 T03170100  RH  026%=      5-min Rain = 0
KCL1 242122Z 13011KT 32/10 A3015 RMK A01 T03170102  RH  027%=      5-min Rain = 0
KCL1 242123Z 13010KT 32/10 A3015 RMK A01 T03190101  RH  026%=      5-min Rain = 0
KCL1 242124Z 14009KT 32/10 A3015 RMK A01 T03190102  RH  026%=      5-min Rain = 0
KCL1 242125Z 12007G12KT 32/10 A3015 RMK A01 T03180101  RH  026%=      5-min Rain = 0
KCL1 242126Z 09005KT 32/10 A3015 RMK A01 T03160100  RH  026%=      5-min Rain = 0
KCL1 242127Z 11006KT 32/10 A3015 RMK A01 T03150100  RH  027%=      5-min Rain = 0
KCL1 242128Z 11005KT 32/10 A3015 RMK A01 T03160099  RH  026%=      5-min Rain = 0
KCL1 242129Z 14006KT 32/10 A3015 RMK A01 T03150099  RH  026%=      5-min Rain = 0
KCL1 242130Z 16007KT 31/10 A3015 RMK A01 T03140100  RH  027%=      5-min Rain = 0
KCL1 242131Z 16006KT 31/10 A3015 RMK A01 T03140099  RH  026%=      5-min Rain = 0
KCL1 242132Z 17005KT 31/10 A3015 RMK A01 T03130101  RH  027%=      5-min Rain = 0
KCL1 242133Z 14001KT 31/10 A3015 RMK A01 T03130101  RH  027%=      5-min Rain = 0
KCL1 242134Z 34003KT 31/10 A3015 RMK A01 T03140102  RH  027%=      5-min Rain = 0
KCL1 242135Z 20007KT 32/11 A3015 RMK A01 T03180105  RH  027%=      5-min Rain = 0
KCL1 242136Z 17006KT 32/10 A3015 RMK A01 T03200104  RH  027%=      5-min Rain = 0
KCL1 242137Z 18008KT 32/11 A3015 RMK A01 T03180105  RH  027%=      5-min Rain = 0
KCL1 242138Z 18008KT 32/11 A3015 RMK A01 T03180105  RH  027%=      5-min Rain = 0
KCL1 242139Z 19006KT 32/11 A3015 RMK A01 T03210107  RH  027%=      5-min Rain = 0
KCL1 242140Z 21008KT 33/11 A3015 RMK A01 T03250106  RH  026%=      5-min Rain = 0
KCL1 242141Z 19008KT 33/11 A3015 RMK A01 T03260106  RH  026%=      5-min Rain = 0
KCL1 242142Z 18007KT 33/10 A3015 RMK A01 T03250103  RH  026%=      5-min Rain = 0
KCL1 242143Z 18005KT 32/10 A3015 RMK A01 T03240103  RH  026%=      5-min Rain = 0
KCL1 242144Z 16007KT 32/10 A3015 RMK A01 T03230103  RH  026%=      5-min Rain = 0
KCL1 242145Z 21009KT 32/10 A3014 RMK A01 T03220104  RH  026%=      5-min Rain = 0
KCL1 242146Z 19009KT 32/10 A3015 RMK A01 T03220100  RH  026%=      5-min Rain = 0
KCL1 242147Z 19007KT 32/10 A3015 RMK A01 T03170098  RH  026%=      5-min Rain = 0
KCL1 242148Z 15006KT 32/10 A3014 RMK A01 T03150098  RH  026%=      5-min Rain = 0
KCL1 242149Z 20006KT 32/10 A3014 RMK A01 T03160099  RH  026%=      5-min Rain = 0
KCL1 242150Z 24005KT 32/10 A3014 RMK A01 T03180100  RH  026%=      5-min Rain = 0
KCL1 242151Z 23005KT 32/10 A3014 RMK A01 T03200102  RH  026%=      5-min Rain = 0
KCL1 242152Z 22008KT 32/10 A3014 RMK A01 T03210101  RH  026%=      5-min Rain = 0
KCL1 242153Z 18011KT 32/10 A3014 RMK A01 T03200102  RH  026%=      5-min Rain = 0
KCL1 242154Z 17011KT 32/10 A3014 RMK A01 T03190102  RH  026%=      5-min Rain = 0
KCL1 242155Z 17010KT 32/10 A3014 RMK A01 T03190102  RH  026%=      5-min Rain = 0
KCL1 242156Z 18010KT 32/10 A3014 RMK A01 T03190103  RH  027%=      5-min Rain = 0
KCL1 242157Z 16010KT 32/10 A3014 RMK A01 T03200103  RH  026%=      5-min Rain = 0
KCL1 242158Z 16009KT 32/10 A3014 RMK A01 T03220103  RH  026%=      5-min Rain = 0
KCL1 242159Z 16004KT 32/10 A3014 RMK A01 T03220101  RH  026%=      5-min Rain = 0
KCL1 242200Z 18006KT 32/10 A3014 RMK A01 T03190102  RH  026%=      5-min Rain = 0
KCL1 242201Z 16007KT 32/10 A3014 RMK A01 T03190103  RH  026%=      5-min Rain = 0
KCL1 242202Z 12008KT 32/10 A3014 RMK A01 T03210102  RH  026%=      5-min Rain = 0
KCL1 242203Z 12004KT 32/10 A3014 RMK A01 T03220103  RH  026%=      5-min Rain = 0
KCL1 242204Z 14005G13KT 32/10 A3014 RMK A01 T03220102  RH  026%=      5-min Rain = 0
KCL1 242205Z 19010G16KT 32/10 A3014 RMK A01 T03220102  RH  026%=      5-min Rain = 0
KCL1 242206Z 18005G10KT 32/10 A3014 RMK A01 T03240102  RH  026%=      5-min Rain = 0
KCL1 242207Z 17010KT 32/10 A3014 RMK A01 T03230103  RH  026%=      5-min Rain = 0
KCL1 242208Z 19010KT 32/10 A3014 RMK A01 T03220103  RH  026%=      5-min Rain = 0
KCL1 242209Z 19009KT 32/10 A3014 RMK A01 T03200102  RH  026%=      5-min Rain = 0
KCL1 242210Z 20009KT 32/10 A3014 RMK A01 T03190103  RH  026%=      5-min Rain = 0
KCL1 242211Z 20010KT 32/10 A3014 RMK A01 T03210104  RH  026%=      5-min Rain = 0
KCL1 242212Z 22009KT 32/10 A3014 RMK A01 T03240102  RH  026%=      5-min Rain = 0
KCL1 242213Z 21008KT 32/10 A3014 RMK A01 T03210100  RH  026%=      5-min Rain = 0
KCL1 242214Z 20006KT 32/10 A3014 RMK A01 T03180101  RH  026%=      5-min Rain = 0
KCL1 242215Z 17008KT 32/10 A3014 RMK A01 T03180102  RH  026%=      5-min Rain = 0
KCL1 242216Z 16010KT 32/10 A3014 RMK A01 T03200101  RH  026%=      5-min Rain = 0
KCL1 242217Z 16008KT 32/10 A3014 RMK A01 T03210100  RH  026%=      5-min Rain = 0
KCL1 242218Z 17006KT 32/10 A3014 RMK A01 T03210102  RH  026%=      5-min Rain = 0
KCL1 242219Z 19010KT 32/10 A3014 RMK A01 T03220101  RH  026%=      5-min Rain = 0
KCL1 242220Z 16006KT 32/10 A3014 RMK A01 T03200103  RH  026%=      5-min Rain = 0
KCL1 242221Z 13005KT 32/10 A3014 RMK A01 T03200103  RH  026%=      5-min Rain = 0
KCL1 242222Z 11004KT 32/10 A3014 RMK A01 T03200102  RH  026%=      5-min Rain = 0
KCL1 242223Z 15003KT 32/10 A3014 RMK A01 T03180101  RH  026%=      5-min Rain = 0
KCL1 242224Z 17003KT 32/10 A3014 RMK A01 T03160101  RH  026%=      5-min Rain = 0
KCL1 242225Z 14002KT 32/10 A3014 RMK A01 T03170102  RH  027%=      5-min Rain = 0
KCL1 242226Z 17004KT 32/10 A3014 RMK A01 T03190101  RH  026%=      5-min Rain = 0
KCL1 242227Z 20005KT 32/10 A3014 RMK A01 T03200101  RH  026%=      5-min Rain = 0
KCL1 242228Z 18005KT 32/10 A3014 RMK A01 T03210101  RH  026%=      5-min Rain = 0
KCL1 242229Z 19006KT 32/10 A3014 RMK A01 T03220101  RH  026%=      5-min Rain = 0
KCL1 242230Z 14009KT 32/10 A3014 RMK A01 T03200100  RH  026%=      5-min Rain = 0
KCL1 242231Z 14009KT 32/10 A3014 RMK A01 T03200100  RH  026%=      5-min Rain = 0
KCL1 242232Z 14007G14KT 32/10 A3014 RMK A01 T03210099  RH  025%=      5-min Rain = 0
KCL1 242233Z 15013G18KT 32/10 A3014 RMK A01 T03220101  RH  026%=      5-min Rain = 0
KCL1 242234Z 15007KT 32/10 A3014 RMK A01 T03210101  RH  026%=      5-min Rain = 0
KCL1 242235Z 15007G14KT 32/10 A3014 RMK A01 T03190101  RH  026%=      5-min Rain = 0
KCL1 242236Z 16008KT 32/10 A3014 RMK A01 T03180102  RH  026%=      5-min Rain = 0
KCL1 242237Z 15009KT 32/10 A3013 RMK A01 T03170102  RH  027%=      5-min Rain = 0
KCL1 242238Z 15011KT 32/10 A3014 RMK A01 T03170101  RH  027%=      5-min Rain = 0
KCL1 242239Z 18009KT 32/10 A3014 RMK A01 T03170101  RH  026%=      5-min Rain = 0
KCL1 242240Z 16010KT 32/10 A3014 RMK A01 T03170102  RH  027%=      5-min Rain = 0
KCL1 242241Z 18007KT 32/10 A3014 RMK A01 T03170101  RH  026%=      5-min Rain = 0
KCL1 242242Z 22010KT 32/10 A3014 RMK A01 T03160101  RH  027%=      5-min Rain = 0
KCL1 242243Z 23008KT 32/10 A3014 RMK A01 T03160101  RH  027%=      5-min Rain = 0
KCL1 242244Z 26005KT 32/10 A3013 RMK A01 T03150100  RH  027%=      5-min Rain = 0
KCL1 242245Z 23004KT 31/10 A3013 RMK A01 T03140101  RH  027%=      5-min Rain = 0
KCL1 242246Z 18005KT 32/10 A3014 RMK A01 T03170101  RH  027%=      5-min Rain = 0
KCL1 242247Z 15008KT 32/10 A3014 RMK A01 T03200103  RH  026%=      5-min Rain = 0
KCL1 242248Z 14005KT 32/10 A3014 RMK A01 T03200101  RH  026%=      5-min Rain = 0
KCL1 242249Z 15005KT 32/10 A3013 RMK A01 T03190102  RH  026%=      5-min Rain = 0
KCL1 242250Z 17008G13KT 32/10 A3013 RMK A01 T03190102  RH  026%=      5-min Rain = 0
KCL1 242251Z 19011KT 32/10 A3013 RMK A01 T03180102  RH  026%=      5-min Rain = 0
KCL1 242252Z 17009KT 32/10 A3013 RMK A01 T03190102  RH  026%=      5-min Rain = 0
KCL1 242253Z 15011KT 32/10 A3013 RMK A01 T03200103  RH  026%=      5-min Rain = 0
KCL1 242254Z 13012KT 32/10 A3013 RMK A01 T03190103  RH  026%=      5-min Rain = 0
KCL1 242255Z 12012KT 32/10 A3013 RMK A01 T03190103  RH  026%=      5-min Rain = 0
KCL1 242256Z 16007KT 32/10 A3013 RMK A01 T03180102  RH  026%=      5-min Rain = 0
KCL1 242257Z 15006KT 32/10 A3013 RMK A01 T03170102  RH  027%=      5-min Rain = 0
KCL1 242258Z 15010KT 32/10 A3013 RMK A01 T03160103  RH  027%=      5-min Rain = 0
KCL1 242259Z 16008KT 32/10 A3013 RMK A01 T03170102  RH  027%=      5-min Rain = 0
KCL1 242300Z 13006KT 32/10 A3013 RMK A01 T03180103  RH  027%=      5-min Rain = 0
KCL1 242301Z 11009KT 32/10 A3013 RMK A01 T03180102  RH  026%=      5-min Rain = 0
KCL1 242302Z 12012KT 32/10 A3013 RMK A01 T03180102  RH  026%=      5-min Rain = 0
KCL1 242303Z 14011KT 32/10 A3013 RMK A01 T03180103  RH  026%=      5-min Rain = 0
KCL1 242304Z 13012KT 32/10 A3013 RMK A01 T03200104  RH  026%=      5-min Rain = 0
KCL1 242305Z 13012KT 32/10 A3013 RMK A01 T03210103  RH  026%=      5-min Rain = 0
KCL1 242306Z 12012KT 32/10 A3013 RMK A01 T03210104  RH  026%=      5-min Rain = 0
KCL1 242307Z 14013KT 32/10 A3013 RMK A01 T03220102  RH  026%=      5-min Rain = 0
KCL1 242308Z 14009KT 32/10 A3013 RMK A01 T03200102  RH  026%=      5-min Rain = 0
KCL1 242309Z 15009KT 32/10 A3013 RMK A01 T03180101  RH  026%=      5-min Rain = 0
KCL1 242310Z 15008KT 32/10 A3013 RMK A01 T03160101  RH  027%=      5-min Rain = 0
KCL1 242311Z 14008KT 32/10 A3013 RMK A01 T03160102  RH  027%=      5-min Rain = 0
KCL1 242312Z 13006KT 32/10 A3013 RMK A01 T03160102  RH  027%=      5-min Rain = 0
KCL1 242313Z 13005KT 32/10 A3013 RMK A01 T03150101  RH  027%=      5-min Rain = 0
KCL1 242314Z 13007KT 32/10 A3013 RMK A01 T03150102  RH  027%=      5-min Rain = 0
KCL1 242315Z 14007G14KT 32/10 A3013 RMK A01 T03150103  RH  027%=      5-min Rain = 0
KCL1 242316Z 14012KT 31/10 A3013 RMK A01 T03140103  RH  027%=      5-min Rain = 0
KCL1 242317Z 14010KT 31/10 A3013 RMK A01 T03100101  RH  027%=      5-min Rain = 0
KCL1 242318Z 13008KT 31/10 A3013 RMK A01 T03080101  RH  028%=      5-min Rain = 0
KCL1 242319Z 16006KT 31/10 A3013 RMK A01 T03080102  RH  028%=      5-min Rain = 0
KCL1 242320Z 17007KT 31/10 A3013 RMK A01 T03090102  RH  028%=      5-min Rain = 0
KCL1 242321Z 16008G13KT 31/10 A3013 RMK A01 T03100102  RH  028%=      5-min Rain = 0
KCL1 242322Z 17011KT 31/10 A3013 RMK A01 T03120102  RH  027%=      5-min Rain = 0
KCL1 242323Z 18010KT 32/10 A3013 RMK A01 T03150102  RH  027%=      5-min Rain = 0
KCL1 242324Z 17009KT 32/10 A3013 RMK A01 T03160102  RH  027%=      5-min Rain = 0
KCL1 242325Z 18009KT 32/10 A3013 RMK A01 T03170103  RH  027%=      5-min Rain = 0
KCL1 242326Z 16010KT 32/10 A3013 RMK A01 T03160104  RH  027%=      5-min Rain = 0
KCL1 242327Z 15013KT 32/10 A3012 RMK A01 T03170104  RH  027%=      5-min Rain = 0
KCL1 242328Z 13013KT 32/10 A3013 RMK A01 T03160102  RH  027%=      5-min Rain = 0
KCL1 242329Z 13011KT 31/10 A3013 RMK A01 T03130102  RH  027%=      5-min Rain = 0
KCL1 242330Z 13009KT 31/10 A3012 RMK A01 T03120103  RH  028%=      5-min Rain = 0
KCL1 242331Z 17007KT 31/10 A3013 RMK A01 T03120104  RH  028%=      5-min Rain = 0
KCL1 242332Z 14007KT 31/10 A3013 RMK A01 T03130104  RH  028%=      5-min Rain = 0
KCL1 242333Z 14006KT 31/10 A3013 RMK A01 T03140104  RH  027%=      5-min Rain = 0
KCL1 242334Z 13007KT 31/11 A3013 RMK A01 T03140105  RH  028%=      5-min Rain = 0
KCL1 242335Z 12006KT 32/10 A3013 RMK A01 T03150103  RH  027%=      5-min Rain = 0
KCL1 242336Z 15005KT 31/10 A3013 RMK A01 T03140102  RH  027%=      5-min Rain = 0
KCL1 242337Z 14004KT 31/10 A3013 RMK A01 T03140103  RH  027%=      5-min Rain = 0
KCL1 242338Z 15003KT 31/10 A3013 RMK A01 T03130104  RH  028%=      5-min Rain = 0
KCL1 242339Z 17004KT 32/11 A3012 RMK A01 T03150105  RH  027%=      5-min Rain = 0
KCL1 242340Z 16005KT 32/11 A3013 RMK A01 T03170106  RH  027%=      5-min Rain = 0
KCL1 242341Z 12006KT 32/11 A3013 RMK A01 T03180105  RH  027%=      5-min Rain = 0
KCL1 242342Z 12006KT 32/10 A3013 RMK A01 T03170104  RH  027%=      5-min Rain = 0
KCL1 242343Z 15007KT 32/10 A3012 RMK A01 T03150104  RH  027%=      5-min Rain = 0
KCL1 242344Z 14008KT 32/11 A3012 RMK A01 T03150106  RH  028%=      5-min Rain = 0
KCL1 242345Z 16008KT 31/11 A3012 RMK A01 T03140105  RH  028%=      5-min Rain = 0
KCL1 242346Z 17006KT 31/10 A3012 RMK A01 T03140104  RH  027%=      5-min Rain = 0
KCL1 242347Z 17008KT 31/11 A3012 RMK A01 T03140105  RH  028%=      5-min Rain = 0
KCL1 242348Z 15011KT 31/11 A3012 RMK A01 T03130105  RH  028%=      5-min Rain = 0
KCL1 242349Z 13010KT 31/11 A3012 RMK A01 T03120105  RH  028%=      5-min Rain = 0
KCL1 242350Z 12010KT 31/11 A3012 RMK A01 T03110105  RH  028%=      5-min Rain = 0
KCL1 242351Z 14009KT 31/11 A3012 RMK A01 T03110105  RH  028%=      5-min Rain = 0
KCL1 242352Z 14008KT 31/11 A3012 RMK A01 T03110105  RH  028%=      5-min Rain = 0
KCL1 242353Z 15006KT 31/11 A3012 RMK A01 T03110105  RH  028%=      5-min Rain = 0
KCL1 242354Z 16010KT 31/11 A3012 RMK A01 T03110105  RH  028%=      5-min Rain = 0
KCL1 242355Z 16011KT 31/10 A3012 RMK A01 T03110104  RH  028%=      5-min Rain = 0
KCL1 242356Z 16011KT 31/10 A3012 RMK A01 T03110104  RH  028%=      5-min Rain = 0
KCL1 242357Z 16009KT 31/10 A3012 RMK A01 T03090104  RH  028%=      5-min Rain = 0
KCL1 242358Z 16010KT 31/11 A3012 RMK A01 T03090105  RH  028%=      5-min Rain = 0
KCL1 242359Z 16008KT 31/11 A3012 RMK A01 T03090105  RH  028%=      5-min Rain = 0
KCL1 250000Z 13007KT 31/11 A3012 RMK A01 T03100105  RH  028%=      5-min Rain = 0
KCL1 250001Z 14006KT 31/11 A3012 RMK A01 T03120106  RH  028%=      5-min Rain = 0
KCL1 250002Z 13010KT 31/11 A3012 RMK A01 T03130108  RH  028%=      5-min Rain = 0
KCL1 250003Z 15008KT 31/11 A3012 RMK A01 T03140107  RH  028%=      5-min Rain = 0
KCL1 250004Z 17007KT 31/11 A3012 RMK A01 T03140107  RH  028%=      5-min Rain = 0
KCL1 250005Z 17009KT 31/11 A3012 RMK A01 T03140105  RH  028%=      5-min Rain = 0
KCL1 250006Z 17009KT 31/10 A3012 RMK A01 T03130104  RH  028%=      5-min Rain = 0
KCL1 250007Z 16010KT 31/10 A3012 RMK A01 T03100104  RH  028%=      5-min Rain = 0
KCL1 250008Z 15008KT 31/10 A3012 RMK A01 T03100104  RH  028%=      5-min Rain = 0
KCL1 250009Z 15009KT 31/10 A3012 RMK A01 T03090104  RH  028%=      5-min Rain = 0
KCL1 250010Z 15008KT 31/10 A3012 RMK A01 T03090104  RH  028%=      5-min Rain = 0
KCL1 250011Z 16008KT 31/10 A3012 RMK A01 T03080103  RH  028%=      5-min Rain = 0
KCL1 250012Z 16008KT 31/10 A3012 RMK A01 T03070103  RH  028%=      5-min Rain = 0
KCL1 250013Z 16009KT 31/10 A3012 RMK A01 T03070104  RH  028%=      5-min Rain = 0
KCL1 250014Z 14007KT 31/10 A3012 RMK A01 T03070104  RH  029%=      5-min Rain = 0
KCL1 250015Z 13008KT 31/10 A3012 RMK A01 T03070104  RH  029%=      5-min Rain = 0
KCL1 250016Z 12008KT 31/11 A3012 RMK A01 T03070105  RH  029%=      5-min Rain = 0
KCL1 250017Z 14011KT 31/10 A3012 RMK A01 T03070104  RH  028%=      5-min Rain = 0
KCL1 250018Z 14009KT 31/10 A3012 RMK A01 T03070103  RH  028%=      5-min Rain = 0
KCL1 250019Z 15008KT 31/10 A3012 RMK A01 T03070104  RH  029%=      5-min Rain = 0
KCL1 250020Z 14009KT 31/11 A3012 RMK A01 T03070105  RH  029%=      5-min Rain = 0
KCL1 250021Z 13007KT 31/11 A3012 RMK A01 T03070105  RH  029%=      5-min Rain = 0
KCL1 250022Z 12008KT 31/11 A3013 RMK A01 T03080106  RH  029%=      5-min Rain = 0
KCL1 250023Z 13011KT 31/11 A3012 RMK A01 T03080105  RH  028%=      5-min Rain = 0
KCL1 250024Z 13011KT 31/10 A3012 RMK A01 T03080104  RH  028%=      5-min Rain = 0
KCL1 250025Z 15012KT 31/11 A3012 RMK A01 T03080105  RH  029%=      5-min Rain = 0
KCL1 250026Z 14012KT 31/10 A3012 RMK A01 T03070104  RH  029%=      5-min Rain = 0
KCL1 250027Z 15012KT 31/10 A3013 RMK A01 T03060104  RH  029%=      5-min Rain = 0
KCL1 250028Z 16009KT 31/10 A3012 RMK A01 T03050103  RH  029%=      5-min Rain = 0
KCL1 250029Z 16008KT 31/10 A3013 RMK A01 T03050104  RH  029%=      5-min Rain = 0
KCL1 250030Z 14009KT 31/10 A3013 RMK A01 T03050104  RH  029%=      5-min Rain = 0
KCL1 250031Z 14011KT 31/10 A3013 RMK A01 T03050104  RH  029%=      5-min Rain = 0
KCL1 250032Z 14009KT 31/10 A3013 RMK A01 T03050103  RH  029%=      5-min Rain = 0
KCL1 250033Z 14006KT 31/10 A3013 RMK A01 T03050102  RH  029%=      5-min Rain = 0
KCL1 250034Z 14009KT 30/10 A3013 RMK A01 T03040103  RH  029%=      5-min Rain = 0
KCL1 250035Z 13012KT 30/10 A3013 RMK A01 T03040104  RH  029%=      5-min Rain = 0
KCL1 250036Z 13008KT 30/10 A3013 RMK A01 T03030104  RH  029%=      5-min Rain = 0
KCL1 250037Z 12010KT 30/10 A3013 RMK A01 T03030104  RH  029%=      5-min Rain = 0
KCL1 250038Z 12008KT 30/11 A3013 RMK A01 T03020105  RH  029%=      5-min Rain = 0
KCL1 250039Z 12010KT 30/11 A3013 RMK A01 T03020105  RH  029%=      5-min Rain = 0
KCL1 250040Z 11010KT 30/10 A3013 RMK A01 T03020104  RH  029%=      5-min Rain = 0
KCL1 250041Z 12009KT 30/10 A3013 RMK A01 T03020104  RH  029%=      5-min Rain = 0
KCL1 250042Z 13011KT 30/11 A3013 RMK A01 T03020105  RH  030%=      5-min Rain = 0
KCL1 250043Z 12010KT 30/10 A3013 RMK A01 T03010104  RH  030%=      5-min Rain = 0
KCL1 250044Z 12011KT 30/10 A3013 RMK A01 T03010104  RH  030%=      5-min Rain = 0
KCL1 250045Z 13010KT 30/10 A3013 RMK A01 T03000103  RH  030%=      5-min Rain = 0
KCL1 250046Z 13011KT 30/10 A3013 RMK A01 T03000104  RH  030%=      5-min Rain = 0
KCL1 250047Z 13010KT 30/10 A3013 RMK A01 T02990104  RH  030%=      5-min Rain = 0
KCL1 250048Z 12011KT 30/10 A3013 RMK A01 T02990104  RH  030%=      5-min Rain = 0
KCL1 250049Z 13013KT 30/10 A3013 RMK A01 T02990104  RH  030%=      5-min Rain = 0
KCL1 250050Z 13011KT 30/10 A3013 RMK A01 T02990104  RH  030%=      5-min Rain = 0
KCL1 250051Z 13010KT 30/11 A3013 RMK A01 T02990105  RH  030%=      5-min Rain = 0
KCL1 250052Z 13010KT 30/11 A3013 RMK A01 T02980105  RH  030%=      5-min Rain = 0
KCL1 250053Z 13010KT 30/11 A3013 RMK A01 T02980105  RH  030%=      5-min Rain = 0
KCL1 250054Z 13009KT 30/11 A3013 RMK A01 T02980105  RH  030%=      5-min Rain = 0
KCL1 250055Z 13009KT 30/11 A3013 RMK A01 T02970105  RH  030%=      5-min Rain = 0
KCL1 250056Z 13008KT 30/10 A3013 RMK A01 T02970104  RH  030%=      5-min Rain = 0
KCL1 250057Z 13008KT 30/11 A3013 RMK A01 T02970105  RH  030%=      5-min Rain = 0
KCL1 250058Z 13007KT 30/11 A3013 RMK A01 T02970105  RH  030%=      5-min Rain = 0
KCL1 250059Z 14007G12KT 30/11 A3013 RMK A01 T02960105  RH  031%=      5-min Rain = 0
KCL1 250100Z 15011KT 30/10 A3013 RMK A01 T02960104  RH  030%=      5-min Rain = 0
KCL1 250101Z 15009KT 30/10 A3013 RMK A01 T02960103  RH  030%=      5-min Rain = 0
KCL1 250102Z 14009KT 30/10 A3013 RMK A01 T02950102  RH  030%=      5-min Rain = 0
KCL1 250103Z 14012KT 30/10 A3013 RMK A01 T02950103  RH  030%=      5-min Rain = 0
KCL1 250104Z 13009KT 30/10 A3013 RMK A01 T02950104  RH  031%=      5-min Rain = 0
KCL1 250105Z 13008KT 29/10 A3013 RMK A01 T02940104  RH  031%=      5-min Rain = 0
KCL1 250106Z 13012KT 29/10 A3013 RMK A01 T02940104  RH  031%=      5-min Rain = 0
KCL1 250107Z 12010KT 29/10 A3013 RMK A01 T02930104  RH  031%=      5-min Rain = 0
KCL1 250108Z 12010KT 29/10 A3013 RMK A01 T02920104  RH  031%=      5-min Rain = 0
KCL1 250109Z 12009KT 29/10 A3013 RMK A01 T02920104  RH  031%=      5-min Rain = 0
KCL1 250110Z 12008KT 29/11 A3013 RMK A01 T02910105  RH  031%=      5-min Rain = 0
KCL1 250111Z 13008KT 29/11 A3013 RMK A01 T02900105  RH  032%=      5-min Rain = 0
KCL1 250112Z 13010KT 29/11 A3013 RMK A01 T02900105  RH  032%=      5-min Rain = 0
KCL1 250113Z 13010KT 29/11 A3013 RMK A01 T02890105  RH  032%=      5-min Rain = 0
KCL1 250114Z 13010KT 29/10 A3013 RMK A01 T02890104  RH  032%=      5-min Rain = 0
KCL1 250115Z 13010KT 29/10 A3013 RMK A01 T02890104  RH  032%=      5-min Rain = 0
KCL1 250116Z 13011KT 29/10 A3013 RMK A01 T02880104  RH  032%=      5-min Rain = 0
KCL1 250117Z 13009KT 29/10 A3014 RMK A01 T02880104  RH  032%=      5-min Rain = 0
KCL1 250118Z 12008KT 29/10 A3014 RMK A01 T02870104  RH  032%=      5-min Rain = 0
KCL1 250119Z 12008KT 29/11 A3014 RMK A01 T02870105  RH  032%=      5-min Rain = 0
KCL1 250120Z 11009KT 29/11 A3014 RMK A01 T02860105  RH  032%=      5-min Rain = 0
KCL1 250121Z 10010KT 28/11 A3014 RMK A01 T02840105  RH  033%=      5-min Rain = 0
KCL1 250122Z 11011KT 28/11 A3014 RMK A01 T02820105  RH  033%=      5-min Rain = 0
KCL1 250123Z 11010KT 28/11 A3014 RMK A01 T02810105  RH  033%=      5-min Rain = 0
KCL1 250124Z 11008KT 28/11 A3014 RMK A01 T02790105  RH  034%=      5-min Rain = 0
KCL1 250125Z 11008KT 28/11 A3014 RMK A01 T02780105  RH  034%=      5-min Rain = 0
KCL1 250126Z 12011KT 28/11 A3014 RMK A01 T02770105  RH  034%=      5-min Rain = 0
KCL1 250127Z 12011KT 28/11 A3014 RMK A01 T02760105  RH  034%=      5-min Rain = 0
KCL1 250128Z 11012KT 28/10 A3014 RMK A01 T02760104  RH  034%=      5-min Rain = 0
KCL1 250129Z 10010KT 28/10 A3014 RMK A01 T02750104  RH  034%=      5-min Rain = 0
KCL1 250130Z 11011KT 27/10 A3014 RMK A01 T02740104  RH  035%=      5-min Rain = 0
KCL1 250131Z 11011G17KT 27/10 A3014 RMK A01 T02730103  RH  035%=      5-min Rain = 0
KCL1 250132Z 10015KT 27/10 A3014 RMK A01 T02720103  RH  035%=      5-min Rain = 0
KCL1 250133Z 10013KT 27/10 A3014 RMK A01 T02720103  RH  035%=      5-min Rain = 0
KCL1 250134Z 10011KT 27/10 A3014 RMK A01 T02710103  RH  035%=      5-min Rain = 0
KCL1 250135Z 10012KT 27/10 A3014 RMK A01 T02700103  RH  035%=      5-min Rain = 0
KCL1 250136Z 10012KT 27/10 A3014 RMK A01 T02690103  RH  035%=      5-min Rain = 0
KCL1 250137Z 10014KT 27/10 A3014 RMK A01 T02690103  RH  035%=      5-min Rain = 0
KCL1 250138Z 10012KT 27/10 A3014 RMK A01 T02680103  RH  036%=      5-min Rain = 0
KCL1 250139Z 10012KT 27/10 A3014 RMK A01 T02680103  RH  036%=      5-min Rain = 0
KCL1 250140Z 10015KT 27/10 A3014 RMK A01 T02670103  RH  036%=      5-min Rain = 0
KCL1 250141Z 10015KT 27/10 A3014 RMK A01 T02670103  RH  036%=      5-min Rain = 0
KCL1 250142Z 11013KT 27/10 A3014 RMK A01 T02680103  RH  036%=      5-min Rain = 0
KCL1 250143Z 10011KT 27/10 A3014 RMK A01 T02680103  RH  036%=      5-min Rain = 0
KCL1 250144Z 10014KT 27/10 A3014 RMK A01 T02670103  RH  036%=      5-min Rain = 0
KCL1 250145Z 10013KT 27/10 A3014 RMK A01 T02660102  RH  036%=      5-min Rain = 0
KCL1 250146Z 10012KT 27/10 A3014 RMK A01 T02660103  RH  036%=      5-min Rain = 0
KCL1 250147Z 10012KT 27/10 A3014 RMK A01 T02650103  RH  036%=      5-min Rain = 0
KCL1 250148Z 11012KT 26/10 A3014 RMK A01 T02640102  RH  036%=      5-min Rain = 0
KCL1 250149Z 11012KT 26/10 A3014 RMK A01 T02640102  RH  036%=      5-min Rain = 0
KCL1 250150Z 11012KT 26/10 A3014 RMK A01 T02630102  RH  036%=      5-min Rain = 0
KCL1 250151Z 11013KT 26/10 A3014 RMK A01 T02630102  RH  036%=      5-min Rain = 0
KCL1 250152Z 10012KT 26/10 A3014 RMK A01 T02630102  RH  036%=      5-min Rain = 0
KCL1 250153Z 11013G18KT 26/10 A3014 RMK A01 T02630102  RH  036%=      5-min Rain = 0
KCL1 250154Z 11012KT 26/10 A3014 RMK A01 T02630101  RH  036%=      5-min Rain = 0
KCL1 250155Z 10012KT 26/10 A3014 RMK A01 T02620101  RH  036%=      5-min Rain = 0
KCL1 250156Z 10013KT 26/10 A3014 RMK A01 T02610101  RH  037%=      5-min Rain = 0
KCL1 250157Z 10012KT 26/10 A3014 RMK A01 T02610101  RH  037%=      5-min Rain = 0
KCL1 250158Z 11012KT 26/10 A3014 RMK A01 T02600101  RH  037%=      5-min Rain = 0
KCL1 250159Z 10012KT 26/10 A3014 RMK A01 T02600101  RH  037%=      5-min Rain = 0
KCL1 250200Z 10012KT 26/10 A3014 RMK A01 T02600101  RH  037%=      5-min Rain = 0
KCL1 250201Z 11012KT 26/10 A3014 RMK A01 T02600101  RH  037%=      5-min Rain = 0
KCL1 250202Z 11012KT 26/10 A3014 RMK A01 T02590101  RH  037%=      5-min Rain = 0
KCL1 250203Z 10012KT 26/10 A3014 RMK A01 T02590101  RH  037%=      5-min Rain = 0
KCL1 250204Z 10013KT 26/10 A3014 RMK A01 T02580101  RH  037%=      5-min Rain = 0
KCL1 250205Z 10012KT 26/10 A3014 RMK A01 T02580101  RH  037%=      5-min Rain = 0
KCL1 250206Z 10013KT 26/10 A3014 RMK A01 T02580101  RH  037%=      5-min Rain = 0
KCL1 250207Z 10012KT 26/10 A3014 RMK A01 T02570101  RH  037%=      5-min Rain = 0
KCL1 250208Z 11013KT 26/10 A3014 RMK A01 T02570102  RH  037%=      5-min Rain = 0
KCL1 250209Z 10012KT 26/10 A3014 RMK A01 T02570102  RH  038%=      5-min Rain = 0
KCL1 250210Z 11012KT 26/10 A3014 RMK A01 T02560101  RH  038%=      5-min Rain = 0
KCL1 250211Z 11010KT 26/10 A3014 RMK A01 T02560101  RH  038%=      5-min Rain = 0
KCL1 250212Z 10013KT 26/10 A3014 RMK A01 T02550101  RH  038%=      5-min Rain = 0
KCL1 250213Z 10012KT 26/10 A3014 RMK A01 T02550101  RH  038%=      5-min Rain = 0
KCL1 250214Z 10011KT 25/10 A3014 RMK A01 T02540101  RH  038%=      5-min Rain = 0
KCL1 250215Z 11011KT 25/10 A3014 RMK A01 T02540101  RH  038%=      5-min Rain = 0
KCL1 250216Z 11010KT 25/10 A3014 RMK A01 T02530101  RH  038%=      5-min Rain = 0
KCL1 250217Z 11011KT 25/10 A3014 RMK A01 T02520101  RH  038%=      5-min Rain = 0
KCL1 250218Z 11011KT 25/10 A3014 RMK A01 T02520101  RH  039%=      5-min Rain = 0
KCL1 250219Z 10011KT 25/10 A3014 RMK A01 T02520101  RH  039%=      5-min Rain = 0
KCL1 250220Z 11011KT 25/10 A3014 RMK A01 T02510101  RH  039%=      5-min Rain = 0
KCL1 250221Z 10011KT 25/10 A3014 RMK A01 T02510101  RH  039%=      5-min Rain = 0
KCL1 250222Z 10010KT 25/10 A3014 RMK A01 T02520101  RH  039%=      5-min Rain = 0
KCL1 250223Z 11011KT 25/10 A3014 RMK A01 T02510101  RH  039%=      5-min Rain = 0
KCL1 250224Z 10010KT 25/10 A3014 RMK A01 T02510100  RH  039%=      5-min Rain = 0
KCL1 250225Z 10011KT 25/10 A3014 RMK A01 T02500100  RH  039%=      5-min Rain = 0
KCL1 250226Z 11012KT 25/10 A3014 RMK A01 T02490100  RH  039%=      5-min Rain = 0
KCL1 250227Z 11010KT 25/10 A3014 RMK A01 T02490100  RH  039%=      5-min Rain = 0
KCL1 250228Z 11011KT 25/10 A3014 RMK A01 T02490100  RH  039%=      5-min Rain = 0
KCL1 250229Z 12010KT 25/10 A3014 RMK A01 T02490100  RH  039%=      5-min Rain = 0
KCL1 250230Z 12010KT 25/10 A3014 RMK A01 T02480100  RH  039%=      5-min Rain = 0
KCL1 250231Z 11009KT 25/10 A3014 RMK A01 T02480100  RH  039%=      5-min Rain = 0
KCL1 250232Z 11009KT 25/10 A3014 RMK A01 T02480100  RH  039%=      5-min Rain = 0
KCL1 250233Z 11009KT 25/10 A3014 RMK A01 T02470099  RH  039%=      5-min Rain = 0
KCL1 250234Z 11009KT 25/10 A3014 RMK A01 T02470099  RH  039%=      5-min Rain = 0
KCL1 250235Z 12007KT 25/10 A3014 RMK A01 T02460099  RH  039%=      5-min Rain = 0
KCL1 250236Z 11008KT 25/10 A3014 RMK A01 T02460099  RH  040%=      5-min Rain = 0
KCL1 250237Z 11009KT 25/10 A3014 RMK A01 T02450099  RH  040%=      5-min Rain = 0
KCL1 250238Z 11009KT 24/10 A3014 RMK A01 T02440099  RH  040%=      5-min Rain = 0
KCL1 250239Z 11010KT 24/10 A3014 RMK A01 T02440099  RH  040%=      5-min Rain = 0
KCL1 250240Z 11008KT 24/10 A3014 RMK A01 T02440099  RH  040%=      5-min Rain = 0
KCL1 250241Z 11008KT 24/10 A3014 RMK A01 T02440099  RH  040%=      5-min Rain = 0
KCL1 250242Z 11009KT 24/10 A3014 RMK A01 T02440099  RH  040%=      5-min Rain = 0
KCL1 250243Z 11010KT 24/10 A3014 RMK A01 T02440099  RH  040%=      5-min Rain = 0
KCL1 250244Z 11008KT 24/10 A3014 RMK A01 T02430098  RH  040%=      5-min Rain = 0
KCL1 250245Z 11009KT 24/10 A3014 RMK A01 T02430098  RH  040%=      5-min Rain = 0
KCL1 250246Z 11009KT 24/10 A3014 RMK A01 T02420098  RH  040%=      5-min Rain = 0
KCL1 250247Z 11009KT 24/10 A3014 RMK A01 T02420098  RH  040%=      5-min Rain = 0
KCL1 250248Z 11011KT 24/10 A3014 RMK A01 T02420098  RH  040%=      5-min Rain = 0
KCL1 250249Z 11010KT 24/10 A3014 RMK A01 T02430097  RH  040%=      5-min Rain = 0
KCL1 250250Z 11010KT 24/10 A3014 RMK A01 T02430097  RH  040%=      5-min Rain = 0
KCL1 250251Z 11011KT 24/10 A3015 RMK A01 T02440097  RH  039%=      5-min Rain = 0
KCL1 250252Z 11011KT 24/10 A3015 RMK A01 T02440096  RH  039%=      5-min Rain = 0
KCL1 250253Z 11011KT 24/10 A3015 RMK A01 T02440096  RH  039%=      5-min Rain = 0
KCL1 250254Z 11010KT 24/10 A3015 RMK A01 T02440096  RH  039%=      5-min Rain = 0
KCL1 250255Z 11011KT 24/10 A3015 RMK A01 T02440096  RH  039%=      5-min Rain = 0
KCL1 250256Z 11010KT 24/10 A3015 RMK A01 T02430095  RH  039%=      5-min Rain = 0
KCL1 250257Z 11010KT 24/10 A3015 RMK A01 T02430095  RH  039%=      5-min Rain = 0
KCL1 250258Z 11010KT 24/10 A3015 RMK A01 T02430095  RH  039%=      5-min Rain = 0
KCL1 250259Z 12010KT 24/10 A3015 RMK A01 T02430095  RH  039%=      5-min Rain = 0
KCL1 250300Z 11010KT 24/10 A3015 RMK A01 T02430095  RH  039%=      5-min Rain = 0
KCL1 250301Z 11009KT 24/10 A3015 RMK A01 T02420095  RH  039%=      5-min Rain = 0
KCL1 250302Z 11009KT 24/10 A3015 RMK A01 T02420095  RH  039%=      5-min Rain = 0
KCL1 250303Z 12009KT 24/09 A3015 RMK A01 T02410094  RH  039%=      5-min Rain = 0
KCL1 250304Z 11009KT 24/09 A3015 RMK A01 T02410094  RH  039%=      5-min Rain = 0
KCL1 250305Z 11010KT 24/09 A3015 RMK A01 T02410094  RH  039%=      5-min Rain = 0
KCL1 250306Z 12009KT 24/09 A3015 RMK A01 T02410094  RH  039%=      5-min Rain = 0
KCL1 250307Z 12010KT 24/09 A3015 RMK A01 T02410094  RH  039%=      5-min Rain = 0
KCL1 250308Z 12010KT 24/09 A3015 RMK A01 T02400093  RH  039%=      5-min Rain = 0
KCL1 250309Z 12009KT 24/09 A3015 RMK A01 T02410092  RH  039%=      5-min Rain = 0
KCL1 250310Z 11011KT 24/09 A3015 RMK A01 T02410093  RH  039%=      5-min Rain = 0
KCL1 250311Z 11009KT 24/09 A3015 RMK A01 T02410092  RH  039%=      5-min Rain = 0
KCL1 250312Z 12009KT 24/09 A3015 RMK A01 T02410092  RH  039%=      5-min Rain = 0
KCL1 250313Z 11009KT 24/09 A3015 RMK A01 T02410092  RH  039%=      5-min Rain = 0
KCL1 250314Z 11009KT 24/09 A3015 RMK A01 T02400091  RH  039%=      5-min Rain = 0
KCL1 250315Z 11009KT 24/09 A3015 RMK A01 T02400091  RH  039%=      5-min Rain = 0
KCL1 250316Z 12009KT 24/09 A3015 RMK A01 T02400091  RH  039%=      5-min Rain = 0
KCL1 250317Z 11009KT 24/09 A3015 RMK A01 T02400091  RH  039%=      5-min Rain = 0
KCL1 250318Z 11009KT 24/09 A3015 RMK A01 T02400091  RH  039%=      5-min Rain = 0
KCL1 250319Z 11008KT 24/09 A3015 RMK A01 T02400090  RH  039%=      5-min Rain = 0
KCL1 250320Z 12008KT 24/09 A3015 RMK A01 T02400090  RH  039%=      5-min Rain = 0
KCL1 250321Z 11008KT 24/09 A3015 RMK A01 T02390090  RH  039%=      5-min Rain = 0
KCL1 250322Z 11007KT 24/09 A3015 RMK A01 T02380090  RH  039%=      5-min Rain = 0
KCL1 250323Z 12008KT 24/09 A3015 RMK A01 T02380090  RH  039%=      5-min Rain = 0
KCL1 250324Z 12007KT 24/09 A3015 RMK A01 T02370090  RH  039%=      5-min Rain = 0
KCL1 250325Z 12006KT 24/09 A3015 RMK A01 T02360089  RH  039%=      5-min Rain = 0
KCL1 250326Z 12007KT 24/09 A3015 RMK A01 T02350089  RH  039%=      5-min Rain = 0
KCL1 250327Z 12007KT 24/09 A3015 RMK A01 T02350089  RH  039%=      5-min Rain = 0
KCL1 250328Z 12007KT 24/09 A3016 RMK A01 T02350089  RH  039%=      5-min Rain = 0
KCL1 250329Z 13006KT 24/09 A3016 RMK A01 T02350088  RH  039%=      5-min Rain = 0
KCL1 250330Z 13006KT 24/09 A3016 RMK A01 T02360088  RH  039%=      5-min Rain = 0
KCL1 250331Z 12006KT 24/09 A3016 RMK A01 T02360088  RH  039%=      5-min Rain = 0
KCL1 250332Z 12006KT 24/09 A3016 RMK A01 T02360088  RH  039%=      5-min Rain = 0
KCL1 250333Z 13008KT 24/09 A3016 RMK A01 T02360088  RH  039%=      5-min Rain = 0
KCL1 250334Z 13007KT 24/09 A3016 RMK A01 T02360088  RH  039%=      5-min Rain = 0
KCL1 250335Z 13007KT 24/09 A3016 RMK A01 T02370088  RH  038%=      5-min Rain = 0
KCL1 250336Z 13008KT 24/09 A3016 RMK A01 T02370087  RH  038%=      5-min Rain = 0
KCL1 250337Z 12009KT 24/09 A3016 RMK A01 T02370087  RH  038%=      5-min Rain = 0
KCL1 250338Z 13008KT 24/09 A3016 RMK A01 T02380087  RH  038%=      5-min Rain = 0
KCL1 250339Z 13009KT 24/09 A3016 RMK A01 T02380087  RH  038%=      5-min Rain = 0
KCL1 250340Z 13010KT 24/09 A3016 RMK A01 T02390087  RH  038%=      5-min Rain = 0
KCL1 250341Z 13010KT 24/09 A3016 RMK A01 T02390087  RH  038%=      5-min Rain = 0
KCL1 250342Z 13010KT 24/09 A3016 RMK A01 T02410087  RH  038%=      5-min Rain = 0
KCL1 250343Z 13009KT 24/09 A3016 RMK A01 T02410087  RH  037%=      5-min Rain = 0
KCL1 250344Z 13010KT 24/09 A3016 RMK A01 T02420087  RH  037%=      5-min Rain = 0
KCL1 250345Z 13009KT 24/09 A3016 RMK A01 T02420087  RH  037%=      5-min Rain = 0
KCL1 250346Z 13009KT 24/09 A3016 RMK A01 T02420087  RH  037%=      5-min Rain = 0
KCL1 250347Z 13008KT 24/09 A3016 RMK A01 T02420087  RH  037%=      5-min Rain = 0
KCL1 250348Z 13008KT 24/09 A3016 RMK A01 T02420087  RH  037%=      5-min Rain = 0
KCL1 250349Z 14008KT 24/09 A3016 RMK A01 T02410087  RH  037%=      5-min Rain = 0
KCL1 250350Z 13010KT 24/09 A3016 RMK A01 T02410087  RH  037%=      5-min Rain = 0
KCL1 250351Z 14010KT 24/09 A3016 RMK A01 T02400087  RH  037%=      5-min Rain = 0
KCL1 250352Z 14009KT 24/09 A3016 RMK A01 T02410087  RH  037%=      5-min Rain = 0
KCL1 250353Z 13010KT 24/09 A3016 RMK A01 T02410087  RH  037%=      5-min Rain = 0
KCL1 250354Z 13010KT 24/09 A3016 RMK A01 T02410087  RH  037%=      5-min Rain = 0
KCL1 250355Z 13008KT 24/09 A3016 RMK A01 T02410087  RH  037%=      5-min Rain = 0
KCL1 250356Z 13010KT 24/09 A3016 RMK A01 T02410087  RH  037%=      5-min Rain = 0
KCL1 250357Z 14010KT 24/09 A3016 RMK A01 T02400087  RH  038%=      5-min Rain = 0
KCL1 250358Z 13010KT 24/09 A3016 RMK A01 T02400087  RH  038%=      5-min Rain = 0
KCL1 250359Z 13008KT 24/09 A3016 RMK A01 T02400087  RH  038%=      5-min Rain = 0
KCL1 250400Z 13008KT 24/09 A3016 RMK A01 T02400087  RH  038%=      5-min Rain = 0
KCL1 250401Z 13008KT 24/09 A3016 RMK A01 T02390086  RH  038%=      5-min Rain = 0
KCL1 250402Z 13010KT 24/09 A3016 RMK A01 T02380086  RH  038%=      5-min Rain = 0
KCL1 250403Z 14010KT 24/09 A3016 RMK A01 T02380086  RH  038%=      5-min Rain = 0
KCL1 250404Z 13009KT 24/09 A3016 RMK A01 T02380086  RH  038%=      5-min Rain = 0
KCL1 250405Z 13011KT 24/09 A3016 RMK A01 T02380086  RH  038%=      5-min Rain = 0
KCL1 250406Z 13008KT 24/09 A3015 RMK A01 T02370086  RH  038%=      5-min Rain = 0
KCL1 250407Z 14009KT 24/09 A3016 RMK A01 T02370086  RH  038%=      5-min Rain = 0
KCL1 250408Z 13010KT 24/09 A3016 RMK A01 T02370086  RH  038%=      5-min Rain = 0
KCL1 250409Z 13008KT 24/09 A3016 RMK A01 T02360086  RH  038%=      5-min Rain = 0
KCL1 250410Z 13008KT 24/09 A3016 RMK A01 T02360086  RH  038%=      5-min Rain = 0
KCL1 250411Z 13008KT 24/09 A3016 RMK A01 T02360085  RH  038%=      5-min Rain = 0
KCL1 250412Z 14010KT 24/09 A3016 RMK A01 T02350085  RH  038%=      5-min Rain = 0
KCL1 250413Z 14010KT 24/09 A3016 RMK A01 T02360085  RH  038%=      5-min Rain = 0
KCL1 250414Z 13008KT 24/09 A3016 RMK A01 T02360085  RH  038%=      5-min Rain = 0
KCL1 250415Z 13010KT 24/09 A3016 RMK A01 T02360085  RH  038%=      5-min Rain = 0
KCL1 250416Z 14008KT 24/09 A3016 RMK A01 T02360085  RH  038%=      5-min Rain = 0
KCL1 250417Z 14008KT 24/09 A3016 RMK A01 T02360085  RH  038%=      5-min Rain = 0
KCL1 250418Z 13008KT 24/09 A3016 RMK A01 T02350085  RH  038%=      5-min Rain = 0
KCL1 250419Z 13008KT 23/09 A3016 RMK A01 T02340085  RH  038%=      5-min Rain = 0
KCL1 250420Z 13008KT 23/09 A3016 RMK A01 T02330085  RH  039%=      5-min Rain = 0
KCL1 250421Z 13008KT 23/08 A3016 RMK A01 T02330084  RH  039%=      5-min Rain = 0
KCL1 250422Z 14007KT 23/08 A3016 RMK A01 T02330084  RH  039%=      5-min Rain = 0
KCL1 250423Z 13009KT 23/08 A3016 RMK A01 T02320084  RH  039%=      5-min Rain = 0
KCL1 250424Z 13007KT 23/08 A3016 RMK A01 T02310084  RH  039%=      5-min Rain = 0
KCL1 250425Z 14007KT 23/08 A3016 RMK A01 T02310084  RH  039%=      5-min Rain = 0
KCL1 250426Z 14008KT 23/08 A3016 RMK A01 T02300084  RH  039%=      5-min Rain = 0
KCL1 250427Z 13007KT 23/08 A3016 RMK A01 T02300084  RH  039%=      5-min Rain = 0
KCL1 250428Z 14007KT 23/08 A3016 RMK A01 T02300084  RH  039%=      5-min Rain = 0
KCL1 250429Z 13007KT 23/08 A3016 RMK A01 T02300084  RH  039%=      5-min Rain = 0
KCL1 250430Z 13008KT 23/08 A3016 RMK A01 T02300084  RH  039%=      5-min Rain = 0
KCL1 250431Z 14008KT 23/08 A3016 RMK A01 T02300084  RH  039%=      5-min Rain = 0
KCL1 250432Z 13009KT 23/08 A3016 RMK A01 T02300083  RH  039%=      5-min Rain = 0
KCL1 250433Z 13007KT 23/08 A3016 RMK A01 T02300084  RH  039%=      5-min Rain = 0
KCL1 250434Z 13007KT 23/08 A3016 RMK A01 T02300084  RH  039%=      5-min Rain = 0
KCL1 250435Z 14007KT 23/08 A3016 RMK A01 T02300084  RH  039%=      5-min Rain = 0
KCL1 250436Z 14007KT 23/08 A3016 RMK A01 T02290084  RH  039%=      5-min Rain = 0
KCL1 250437Z 14007KT 23/08 A3016 RMK A01 T02280083  RH  039%=      5-min Rain = 0
KCL1 250438Z 14007KT 23/08 A3016 RMK A01 T02280084  RH  040%=      5-min Rain = 0
KCL1 250439Z 14007KT 23/08 A3016 RMK A01 T02270083  RH  040%=      5-min Rain = 0
KCL1 250440Z 14007KT 23/08 A3016 RMK A01 T02270083  RH  040%=      5-min Rain = 0
KCL1 250441Z 14007KT 23/08 A3016 RMK A01 T02270083  RH  040%=      5-min Rain = 0
KCL1 250442Z 14007KT 23/08 A3016 RMK A01 T02270083  RH  040%=      5-min Rain = 0
KCL1 250443Z 14007KT 23/08 A3016 RMK A01 T02270083  RH  040%=      5-min Rain = 0
KCL1 250444Z 14007KT 23/08 A3016 RMK A01 T02260083  RH  040%=      5-min Rain = 0
KCL1 250445Z 14007KT 23/08 A3016 RMK A01 T02260083  RH  040%=      5-min Rain = 0
KCL1 250446Z 14007KT 23/08 A3016 RMK A01 T02260083  RH  040%=      5-min Rain = 0
KCL1 250447Z 13007KT 23/08 A3016 RMK A01 T02250083  RH  040%=      5-min Rain = 0
KCL1 250448Z 14007KT 23/08 A3016 RMK A01 T02250083  RH  040%=      5-min Rain = 0
KCL1 250449Z 13007KT 22/08 A3016 RMK A01 T02240083  RH  040%=      5-min Rain = 0
KCL1 250450Z 13008KT 22/08 A3016 RMK A01 T02240083  RH  040%=      5-min Rain = 0
KCL1 250451Z 13007KT 22/08 A3016 RMK A01 T02240083  RH  040%=      5-min Rain = 0
KCL1 250452Z 13007KT 22/08 A3016 RMK A01 T02240083  RH  040%=      5-min Rain = 0
KCL1 250453Z 13007KT 22/08 A3016 RMK A01 T02240083  RH  040%=      5-min Rain = 0
KCL1 250454Z 13008KT 22/08 A3016 RMK A01 T02230083  RH  040%=      5-min Rain = 0
KCL1 250455Z 13007KT 22/08 A3016 RMK A01 T02230083  RH  041%=      5-min Rain = 0
KCL1 250456Z 13007KT 22/08 A3016 RMK A01 T02230082  RH  040%=      5-min Rain = 0
KCL1 250457Z 13007KT 22/08 A3016 RMK A01 T02230082  RH  040%=      5-min Rain = 0
KCL1 250458Z 13008KT 22/08 A3016 RMK A01 T02230082  RH  041%=      5-min Rain = 0
KCL1 250459Z 13007KT 22/08 A3016 RMK A01 T02220082  RH  041%=      5-min Rain = 0

Page generated in 0.1245 seconds.